Time,TemperatureF,DewpointF,PressureIn,WindDirection,WindDirectionDegrees,WindSpeedMPH,WindSpeedGustMPH,Humidity,HourlyPrecipIn,Conditions,Clouds,dailyrainin,SolarRadiationWatts/m^2,SoftwareType,DateUTC
2013-08-21 00:00:00,58.0,45.9,30.11,WSW,251,0.0,0.0,64,13.22,RA,,99.99,0.0,WeatherDisplay:10.37,2013-08-20 22:00:00,
2013-08-21 00:02:00,58.0,45.9,30.11,WSW,251,0.0,0.0,64,12.70,RA,,0.00,0.0,WeatherDisplay:10.37,2013-08-20 22:02:00,
2013-08-21 00:04:00,58.0,45.9,30.11,WNW,287,1.2,1.2,64,12.02,RA,,0.00,0.0,WeatherDisplay:10.37,2013-08-20 22:04:00,
2013-08-21 00:06:00,58.0,45.9,30.11,WNW,287,0.0,0.0,64,11.63,CLR,,0.00,0.0,WeatherDisplay:10.37,2013-08-20 22:06:00,
2013-08-21 00:07:00,58.0,45.9,30.11,WNW,287,0.0,0.0,64,11.63,CLR,,0.00,0.0,WeatherDisplay:10.37,2013-08-20 22:07:00,
2013-08-21 00:09:00,58.0,45.9,30.11,WNW,287,0.0,0.0,64,11.19,CLR,,0.00,0.0,WeatherDisplay:10.37,2013-08-20 22:09:00,
2013-08-21 00:12:00,58.0,45.9,30.11,WNW,287,0.0,0.0,64,10.44,CLR,,0.00,0.0,WeatherDisplay:10.37,2013-08-20 22:12:00,
2013-08-21 00:13:00,58.0,45.9,30.11,WNW,287,0.0,0.0,64,10.44,CLR,,0.00,0.0,WeatherDisplay:10.37,2013-08-20 22:13:00,
2013-08-21 00:14:00,58.0,45.9,30.11,WNW,287,0.0,0.0,64,10.44,CLR,,0.00,0.0,WeatherDisplay:10.37,2013-08-20 22:14:00,
2013-08-21 00:17:00,58.0,45.9,30.11,NW,322,0.0,0.0,64,10.44,CLR,,0.00,0.0,WeatherDisplay:10.37,2013-08-20 22:17:00,
2013-08-21 00:18:00,58.0,45.9,30.11,NW,322,0.0,0.0,64,10.12,CLR,,0.00,0.0,WeatherDisplay:10.37,2013-08-20 22:18:00,
2013-08-21 00:19:00,58.0,45.9,30.11,North,1,0.0,0.0,64,9.88,CLR,,0.00,0.0,WeatherDisplay:10.37,2013-08-20 22:19:00,
2013-08-21 00:20:00,58.0,45.9,30.11,North,1,1.0,0.0,64,9.48,CLR,,0.00,0.0,WeatherDisplay:10.37,2013-08-20 22:20:00,
2013-08-21 00:22:00,57.5,45.4,30.11,SSE,161,2.0,0.0,64,9.48,CLR,,0.00,0.0,WeatherDisplay:10.37,2013-08-20 22:22:00,
2013-08-21 00:23:00,57.5,45.4,30.11,SSE,161,2.3,2.3,64,8.77,CLR,,0.00,0.0,WeatherDisplay:10.37,2013-08-20 22:23:00,
2013-08-21 00:24:00,57.5,45.4,30.11,SSE,161,0.0,0.0,64,8.77,CLR,,0.00,0.0,WeatherDisplay:10.37,2013-08-20 22:24:00,
2013-08-21 00:25:00,57.5,45.4,30.11,SSE,161,2.3,2.3,64,8.45,CLR,,0.00,0.0,WeatherDisplay:10.37,2013-08-20 22:25:00,
2013-08-21 00:27:00,57.5,45.4,30.11,West,277,1.2,0.0,64,8.57,RA,,0.36,0.0,WeatherDisplay:10.37,2013-08-20 22:27:00,
2013-08-21 00:28:00,57.3,45.2,30.11,NE,42,0.0,0.0,64,8.06,RA,,0.36,0.0,WeatherDisplay:10.37,2013-08-20 22:28:00,
2013-08-21 00:29:00,57.5,45.4,30.11,NE,42,0.0,0.0,64,7.86,RA,,0.36,0.0,WeatherDisplay:10.37,2013-08-20 22:29:00,
2013-08-21 00:30:00,57.5,45.4,30.11,NE,42,0.0,0.0,64,7.58,,,0.36,0.0,WeatherDisplay:10.37,2013-08-20 22:30:00,
2013-08-21 00:33:00,57.5,45.4,30.11,NE,42,0.0,0.0,64,6.91,CLR,,0.36,0.0,WeatherDisplay:10.37,2013-08-20 22:33:00,
2013-08-21 00:34:00,57.5,45.4,30.11,NE,42,0.0,0.0,64,6.59,CLR,,0.36,0.0,WeatherDisplay:10.37,2013-08-20 22:34:00,
2013-08-21 00:35:00,57.5,45.4,30.11,NE,42,0.0,0.0,64,6.98,RA,,0.99,0.0,WeatherDisplay:10.37,2013-08-20 22:35:00,
2013-08-21 00:38:00,57.2,45.1,30.11,NE,42,0.0,0.0,64,6.35,,,0.99,0.0,WeatherDisplay:10.37,2013-08-20 22:38:00,
2013-08-21 00:39:00,57.2,45.1,30.11,South,178,1.2,1.2,64,5.79,CLR,,0.99,0.0,WeatherDisplay:10.37,2013-08-20 22:39:00,
2013-08-21 00:40:00,57.2,45.1,30.11,South,178,1.2,1.2,64,5.79,CLR,,0.99,0.0,WeatherDisplay:10.37,2013-08-20 22:40:00,
2013-08-21 00:41:00,57.2,45.1,30.11,ENE,61,1.2,1.2,64,5.79,CLR,,0.99,0.0,WeatherDisplay:10.37,2013-08-20 22:41:00,
2013-08-21 00:43:00,57.2,46.3,30.12,East,96,0.0,0.0,67,5.72,RA,,1.71,0.0,WeatherDisplay:10.37,2013-08-20 22:43:00,
2013-08-21 00:44:00,57.2,46.3,30.11,East,96,0.0,0.0,67,5.72,RA,,1.71,0.0,WeatherDisplay:10.37,2013-08-20 22:44:00,
2013-08-21 00:45:00,57.2,46.3,30.11,East,96,0.0,0.0,67,5.32,RA,,1.71,0.0,WeatherDisplay:10.37,2013-08-20 22:45:00,
2013-08-21 00:46:00,57.2,46.3,30.11,North,8,0.0,0.0,67,5.20,,,1.71,0.0,WeatherDisplay:10.37,2013-08-20 22:46:00,
2013-08-21 00:48:00,57.2,46.3,30.11,North,8,0.0,0.0,67,5.20,CLR,,1.71,0.0,WeatherDisplay:10.37,2013-08-20 22:48:00,
2013-08-21 00:49:00,57.2,46.3,30.11,North,8,0.0,0.0,67,4.41,CLR,,1.71,0.0,WeatherDisplay:10.37,2013-08-20 22:49:00,
2013-08-21 00:51:00,57.2,46.3,30.11,North,8,0.0,0.0,67,4.44,RA,,2.34,0.0,WeatherDisplay:10.37,2013-08-20 22:51:00,
2013-08-21 00:53:00,57.0,46.1,30.11,WNW,285,0.0,0.0,67,4.37,RA,,2.74,0.0,WeatherDisplay:10.37,2013-08-20 22:53:00,
2013-08-21 00:54:00,57.0,46.1,30.12,WNW,285,0.0,0.0,67,4.37,RA,,3.46,0.0,WeatherDisplay:10.37,2013-08-20 22:54:00,
2013-08-21 00:56:00,57.0,46.1,30.12,WNW,282,0.0,0.0,67,5.09,RA,,3.46,0.0,WeatherDisplay:10.37,2013-08-20 22:56:00,
2013-08-21 00:58:00,57.0,46.1,30.12,WSW,237,0.0,0.0,67,5.00,RA,,4.33,0.0,WeatherDisplay:10.37,2013-08-20 22:58:00,
2013-08-21 01:00:00,56.9,46.1,30.12,WSW,237,0.0,0.0,67,4.33,RA,,4.33,0.0,WeatherDisplay:10.37,2013-08-20 23:00:00,
2013-08-21 01:01:00,56.9,46.1,30.11,WSW,237,0.0,0.0,67,4.33,RA,,4.96,0.0,WeatherDisplay:10.37,2013-08-20 23:01:00,
2013-08-21 01:02:00,56.9,46.4,30.11,WSW,237,0.0,0.0,68,4.96,RA,,4.96,0.0,WeatherDisplay:10.37,2013-08-20 23:02:00,
2013-08-21 01:04:00,56.9,46.4,30.11,WSW,237,0.0,0.0,68,4.96,RA,,5.76,0.0,WeatherDisplay:10.37,2013-08-20 23:04:00,
2013-08-21 01:06:00,56.7,46.3,30.11,WSW,237,2.3,2.3,68,5.76,RA,,5.76,0.0,WeatherDisplay:10.37,2013-08-20 23:06:00,
2013-08-21 01:07:00,56.7,46.3,30.11,WSW,237,0.0,0.0,68,6.23,RA,,6.47,0.0,WeatherDisplay:10.37,2013-08-20 23:07:00,
2013-08-21 01:09:00,56.7,46.3,30.11,SW,230,0.0,0.2,68,6.47,RA,,7.03,0.0,WeatherDisplay:10.37,2013-08-20 23:09:00,
2013-08-21 01:11:00,56.7,46.3,30.11,West,265,3.5,3.5,68,7.34,RA,,7.34,0.0,WeatherDisplay:10.37,2013-08-20 23:11:00,
2013-08-21 01:12:00,56.7,46.3,30.11,West,265,3.5,0.0,68,7.34,RA,,7.70,0.0,WeatherDisplay:10.37,2013-08-20 23:12:00,
2013-08-21 01:15:00,56.7,46.3,30.11,West,265,0.0,0.0,68,8.02,RA,,8.02,0.0,WeatherDisplay:10.37,2013-08-20 23:15:00,
2013-08-21 01:17:00,56.7,46.3,30.11,West,265,0.0,0.0,68,8.02,RA,,8.02,0.0,WeatherDisplay:10.37,2013-08-20 23:17:00,
2013-08-21 01:18:00,56.7,46.3,30.11,West,265,0.0,0.0,68,8.02,,,8.02,0.0,WeatherDisplay:10.37,2013-08-20 23:18:00,
2013-08-21 01:21:00,56.7,46.3,30.12,West,265,0.0,0.0,68,8.02,CLR,,8.02,0.0,WeatherDisplay:10.37,2013-08-20 23:21:00,
2013-08-21 01:22:00,56.7,46.3,30.12,West,265,0.0,0.0,68,8.02,CLR,,8.02,0.0,WeatherDisplay:10.37,2013-08-20 23:22:00,
2013-08-21 01:23:00,56.7,46.3,30.12,West,265,0.0,0.0,68,8.02,CLR,,8.02,0.0,WeatherDisplay:10.37,2013-08-20 23:23:00,
2013-08-21 01:27:00,56.7,46.3,30.12,West,277,0.0,0.0,68,7.66,CLR,,8.02,0.0,WeatherDisplay:10.37,2013-08-20 23:27:00,
2013-08-21 01:28:00,56.7,46.3,30.12,West,277,0.0,0.0,68,7.66,CLR,,8.02,0.0,WeatherDisplay:10.37,2013-08-20 23:28:00,
2013-08-21 01:32:00,56.7,47.0,30.12,NW,319,0.0,0.0,70,7.66,CLR,,8.02,0.0,WeatherDisplay:10.37,2013-08-20 23:32:00,
2013-08-21 01:33:00,56.7,47.0,30.11,WSW,250,0.0,0.0,70,7.66,CLR,,8.02,0.0,WeatherDisplay:10.37,2013-08-20 23:33:00,
2013-08-21 01:37:00,56.3,46.6,30.12,WSW,250,0.0,0.0,70,7.03,CLR,,8.02,0.0,WeatherDisplay:10.37,2013-08-20 23:37:00,
2013-08-21 01:38:00,56.3,46.6,30.12,WSW,250,0.0,0.0,70,7.03,CLR,,8.02,0.0,WeatherDisplay:10.37,2013-08-20 23:38:00,
2013-08-21 01:42:00,56.2,46.5,30.12,WSW,250,2.0,2.0,70,7.03,CLR,,8.02,0.0,WeatherDisplay:10.37,2013-08-20 23:42:00,
2013-08-21 01:43:00,56.2,46.5,30.12,WSW,250,2.3,2.3,70,6.31,CLR,,8.02,0.0,WeatherDisplay:10.37,2013-08-20 23:43:00,
2013-08-21 01:44:00,56.2,46.5,30.12,WSW,250,2.3,2.3,70,6.31,CLR,,8.02,0.0,WeatherDisplay:10.37,2013-08-20 23:44:00,
2013-08-21 01:47:00,56.2,46.5,30.12,WSW,250,0.0,0.0,70,6.59,RA,,8.30,0.0,WeatherDisplay:10.37,2013-08-20 23:47:00,
2013-08-21 01:48:00,56.2,46.5,30.12,WSW,250,0.0,0.0,70,6.59,RA,,8.30,0.0,WeatherDisplay:10.37,2013-08-20 23:48:00,
2013-08-21 01:49:00,56.2,46.5,30.12,WSW,250,0.0,0.0,70,6.59,RA,,8.30,0.0,WeatherDisplay:10.37,2013-08-20 23:49:00,
2013-08-21 01:53:00,56.2,46.5,30.12,WSW,250,4.6,5.0,70,5.56,CLR,,8.30,0.0,WeatherDisplay:10.37,2013-08-20 23:53:00,
2013-08-21 01:54:00,56.2,46.5,30.12,WSW,250,4.6,4.6,70,5.56,CLR,,8.30,0.0,WeatherDisplay:10.37,2013-08-20 23:54:00,
2013-08-21 01:58:00,56.0,46.7,30.12,WSW,250,2.3,2.3,71,4.69,RA,,8.82,0.0,WeatherDisplay:10.37,2013-08-20 23:58:00,
2013-08-21 01:59:00,56.0,46.7,30.11,WSW,250,0.0,0.0,71,4.49,RA,,9.13,0.0,WeatherDisplay:10.37,2013-08-20 23:59:00,
2013-08-21 02:00:00,55.9,46.6,30.12,WSW,250,0.0,0.0,71,4.49,RA,,9.13,0.0,WeatherDisplay:10.37,2013-08-21 00:00:00,
2013-08-21 02:03:00,55.9,46.6,30.12,WSW,250,1.2,1.2,71,4.73,RA,,9.69,0.0,WeatherDisplay:10.37,2013-08-21 00:03:00,
2013-08-21 02:04:00,55.9,46.6,30.12,WSW,250,1.2,1.2,71,4.73,RA,,9.69,0.0,WeatherDisplay:10.37,2013-08-21 00:04:00,
2013-08-21 02:05:00,55.9,46.6,30.12,WSW,250,1.2,1.2,71,3.93,,,9.69,0.0,WeatherDisplay:10.37,2013-08-21 00:05:00,
2013-08-21 02:08:00,55.9,46.6,30.11,WSW,250,0.0,0.0,71,3.22,CLR,,9.69,0.0,WeatherDisplay:10.37,2013-08-21 00:08:00,
2013-08-21 02:09:00,55.9,46.6,30.11,WSW,250,0.0,0.0,71,3.22,CLR,,9.69,0.0,WeatherDisplay:10.37,2013-08-21 00:09:00,
2013-08-21 02:10:00,55.9,46.6,30.11,WSW,250,0.0,0.0,71,2.66,CLR,,9.69,0.0,WeatherDisplay:10.37,2013-08-21 00:10:00,
2013-08-21 02:13:00,55.7,46.4,30.11,WSW,247,0.0,0.0,71,1.99,CLR,,9.69,0.0,WeatherDisplay:10.37,2013-08-21 00:13:00,
2013-08-21 02:14:00,55.7,46.4,30.11,WSW,247,0.0,0.0,71,1.67,CLR,,9.69,0.0,WeatherDisplay:10.37,2013-08-21 00:14:00,
2013-08-21 02:15:00,55.7,46.4,30.11,WSW,247,0.0,0.0,71,1.67,CLR,,9.69,0.0,WeatherDisplay:10.37,2013-08-21 00:15:00,
2013-08-21 02:18:00,55.7,46.4,30.11,WNW,288,3.5,0.0,71,1.67,CLR,,9.69,0.0,WeatherDisplay:10.37,2013-08-21 00:18:00,
2013-08-21 02:19:00,55.7,46.4,30.11,WNW,288,0.0,0.0,71,1.67,CLR,,9.69,0.0,WeatherDisplay:10.37,2013-08-21 00:19:00,
2013-08-21 02:20:00,55.7,46.4,30.11,West,274,0.0,0.0,71,1.67,CLR,,9.69,0.0,WeatherDisplay:10.37,2013-08-21 00:20:00,
2013-08-21 02:21:00,55.7,46.4,30.11,West,274,0.0,0.0,71,1.67,CLR,,9.69,0.0,WeatherDisplay:10.37,2013-08-21 00:21:00,
2013-08-21 02:24:00,55.7,46.4,30.11,West,272,3.5,3.5,71,1.67,CLR,,9.69,0.0,WeatherDisplay:10.37,2013-08-21 00:24:00,
2013-08-21 02:25:00,55.7,46.4,30.11,West,264,3.5,0.0,71,1.67,CLR,,9.69,0.0,WeatherDisplay:10.37,2013-08-21 00:25:00,
2013-08-21 02:26:00,55.7,46.4,30.11,West,264,0.0,0.0,71,1.67,CLR,,9.69,0.0,WeatherDisplay:10.37,2013-08-21 00:26:00,
2013-08-21 02:29:00,55.7,46.4,30.11,West,264,0.0,0.0,71,1.67,CLR,,9.69,0.0,WeatherDisplay:10.37,2013-08-21 00:29:00,
2013-08-21 02:30:00,55.7,46.4,30.11,West,264,0.0,0.0,71,1.67,CLR,,9.69,0.0,WeatherDisplay:10.37,2013-08-21 00:30:00,
2013-08-21 02:31:00,55.7,46.4,30.11,West,264,0.0,0.0,71,1.67,CLR,,9.69,0.0,WeatherDisplay:10.37,2013-08-21 00:31:00,
2013-08-21 02:34:00,55.7,46.4,30.11,NNW,330,3.0,3.0,71,1.67,CLR,,9.69,0.0,WeatherDisplay:10.37,2013-08-21 00:34:00,
2013-08-21 02:36:00,55.6,46.3,30.10,NNW,330,3.5,3.5,71,1.67,CLR,,9.69,0.0,WeatherDisplay:10.37,2013-08-21 00:36:00,
2013-08-21 02:39:00,55.6,46.3,30.10,NNW,330,2.3,0.0,71,2.19,RA,,10.21,0.0,WeatherDisplay:10.37,2013-08-21 00:39:00,
2013-08-21 02:41:00,55.6,46.3,30.10,West,264,1.0,1.0,71,2.19,RA,,10.89,0.0,WeatherDisplay:10.37,2013-08-21 00:41:00,
2013-08-21 02:44:00,55.6,46.3,30.10,SSW,206,1.2,0.0,71,3.26,RA,,11.28,0.0,WeatherDisplay:10.37,2013-08-21 00:44:00,
2013-08-21 02:45:00,55.6,46.3,30.10,SSW,206,0.0,0.0,71,3.26,RA,,11.28,0.0,WeatherDisplay:10.37,2013-08-21 00:45:00,
2013-08-21 02:46:00,55.6,46.3,30.10,SSW,206,0.0,0.0,71,2.98,,,11.28,0.0,WeatherDisplay:10.37,2013-08-21 00:46:00,
2013-08-21 02:47:00,55.6,46.3,30.10,SSW,206,0.0,0.0,71,2.98,,,11.28,0.0,WeatherDisplay:10.37,2013-08-21 00:47:00,
2013-08-21 02:49:00,55.6,46.3,30.10,SSW,206,0.0,0.0,71,2.98,CLR,,11.28,0.0,WeatherDisplay:10.37,2013-08-21 00:49:00,
2013-08-21 02:50:00,55.6,46.3,30.10,SSW,206,0.0,0.0,71,2.98,CLR,,11.28,0.0,WeatherDisplay:10.37,2013-08-21 00:50:00,
2013-08-21 02:51:00,55.6,46.3,30.10,SSW,206,0.0,0.0,71,2.98,CLR,,11.28,0.0,WeatherDisplay:10.37,2013-08-21 00:51:00,
2013-08-21 02:52:00,55.4,46.2,30.10,SSW,208,5.0,5.0,71,2.98,CLR,,11.28,0.0,WeatherDisplay:10.37,2013-08-21 00:52:00,
2013-08-21 02:54:00,55.4,46.2,30.10,SSW,198,4.6,4.6,71,2.98,CLR,,11.28,0.0,WeatherDisplay:10.37,2013-08-21 00:54:00,
2013-08-21 02:55:00,55.4,46.2,30.10,SSW,198,0.0,0.0,71,2.98,CLR,,11.28,0.0,WeatherDisplay:10.37,2013-08-21 00:55:00,
2013-08-21 02:57:00,55.4,46.2,30.10,SSW,200,0.0,0.0,71,2.98,CLR,,11.28,0.0,WeatherDisplay:10.37,2013-08-21 00:57:00,
2013-08-21 03:00:00,55.4,46.2,30.10,SSW,200,0.0,0.0,71,2.46,CLR,,11.28,0.0,WeatherDisplay:10.37,2013-08-21 01:00:00,
2013-08-21 03:01:00,55.6,46.3,30.10,SSW,200,0.0,0.0,71,1.75,CLR,,11.28,0.0,WeatherDisplay:10.37,2013-08-21 01:01:00,
2013-08-21 03:02:00,55.6,46.3,30.10,SSW,200,0.0,0.0,71,1.59,CLR,,11.28,0.0,WeatherDisplay:10.37,2013-08-21 01:02:00,
2013-08-21 03:05:00,55.6,46.3,30.10,SSW,200,0.0,0.0,71,1.59,CLR,,11.28,0.0,WeatherDisplay:10.37,2013-08-21 01:05:00,
2013-08-21 03:06:00,55.6,46.3,30.10,SSW,200,0.0,0.0,71,1.59,CLR,,11.28,0.0,WeatherDisplay:10.37,2013-08-21 01:06:00,
2013-08-21 03:07:00,55.6,46.3,30.10,SSW,200,0.0,0.0,71,1.59,CLR,,11.28,0.0,WeatherDisplay:10.37,2013-08-21 01:07:00,
2013-08-21 03:11:00,55.6,46.3,30.10,SSW,200,0.0,0.0,71,1.59,CLR,,11.28,0.0,WeatherDisplay:10.37,2013-08-21 01:11:00,
2013-08-21 03:13:00,55.4,46.2,30.10,ENE,69,0.0,0.0,71,2.11,RA,,11.80,0.0,WeatherDisplay:10.37,2013-08-21 01:13:00,
2013-08-21 03:16:00,55.4,46.2,30.11,NNE,14,0.0,0.0,71,2.11,,,11.80,0.0,WeatherDisplay:10.37,2013-08-21 01:16:00,
2013-08-21 03:18:00,55.4,46.2,30.11,NNE,14,0.0,0.0,71,2.11,CLR,,11.80,0.0,WeatherDisplay:10.37,2013-08-21 01:18:00,
2013-08-21 03:19:00,55.4,46.2,30.11,NNE,14,0.0,0.0,71,2.11,CLR,,11.80,0.0,WeatherDisplay:10.37,2013-08-21 01:19:00,
2013-08-21 03:22:00,55.3,46.1,30.10,NNE,14,0.0,0.0,71,2.11,CLR,,11.80,0.0,WeatherDisplay:10.37,2013-08-21 01:22:00,
2013-08-21 03:23:00,55.3,46.1,30.10,NE,47,0.0,0.0,71,2.11,CLR,,11.80,0.0,WeatherDisplay:10.37,2013-08-21 01:23:00,
2013-08-21 03:24:00,55.3,46.1,30.10,NE,47,0.0,0.0,71,2.11,CLR,,11.80,0.0,WeatherDisplay:10.37,2013-08-21 01:24:00,
2013-08-21 03:27:00,55.3,46.1,30.10,SE,136,0.0,0.0,71,2.11,CLR,,11.80,0.0,WeatherDisplay:10.37,2013-08-21 01:27:00,
2013-08-21 03:29:00,55.1,45.9,30.10,SE,136,0.0,0.0,71,2.11,CLR,,11.80,0.0,WeatherDisplay:10.37,2013-08-21 01:29:00,
2013-08-21 03:32:00,55.1,45.9,30.10,SE,136,0.0,0.0,71,2.11,CLR,,11.80,0.0,WeatherDisplay:10.37,2013-08-21 01:32:00,
2013-08-21 03:34:00,55.1,45.9,30.10,SE,136,0.0,0.0,71,2.11,CLR,,11.80,0.0,WeatherDisplay:10.37,2013-08-21 01:34:00,
2013-08-21 03:36:00,55.1,45.9,30.10,SE,136,0.0,0.0,71,2.11,CLR,,11.80,0.0,WeatherDisplay:10.37,2013-08-21 01:36:00,
2013-08-21 03:38:00,55.1,45.9,30.10,SE,136,0.0,0.0,71,2.11,CLR,,11.80,0.0,WeatherDisplay:10.37,2013-08-21 01:38:00,
2013-08-21 03:39:00,55.1,45.9,30.10,SE,136,0.0,0.0,71,1.59,CLR,,11.80,0.0,WeatherDisplay:10.37,2013-08-21 01:39:00,
2013-08-21 03:40:00,55.1,45.9,30.10,North,6,0.0,0.0,71,1.59,CLR,,11.80,0.0,WeatherDisplay:10.37,2013-08-21 01:40:00,
2013-08-21 03:41:00,55.1,45.9,30.06,North,6,0.0,0.0,71,1.59,CLR,,11.80,0.0,WeatherDisplay:10.37,2013-08-21 01:41:00,
2013-08-21 03:43:00,55.1,45.9,30.06,North,0,0.0,0.0,71,0.52,CLR,,11.80,0.0,WeatherDisplay:10.37,2013-08-21 01:43:00,
2013-08-21 03:44:00,55.1,45.9,30.06,North,0,0.0,0.0,71,0.52,CLR,,11.80,0.0,WeatherDisplay:10.37,2013-08-21 01:44:00,
2013-08-21 03:45:00,55.1,45.9,30.06,North,0,0.0,0.0,71,0.52,CLR,,11.80,0.0,WeatherDisplay:10.37,2013-08-21 01:45:00,
2013-08-21 03:46:00,55.1,45.9,30.06,North,0,0.0,0.0,71,0.52,CLR,,11.80,0.0,WeatherDisplay:10.37,2013-08-21 01:46:00,
2013-08-21 03:48:00,55.1,45.9,30.06,North,0,0.0,0.0,71,0.52,CLR,,11.80,0.0,WeatherDisplay:10.37,2013-08-21 01:48:00,
2013-08-21 03:49:00,55.1,45.9,30.06,North,0,0.0,0.0,71,0.52,CLR,,11.80,0.0,WeatherDisplay:10.37,2013-08-21 01:49:00,
2013-08-21 03:50:00,55.1,45.9,30.06,North,0,0.0,0.0,71,0.52,CLR,,11.80,0.0,WeatherDisplay:10.37,2013-08-21 01:50:00,
2013-08-21 03:52:00,55.1,45.9,30.06,North,0,0.0,0.0,71,0.52,CLR,,11.80,0.0,WeatherDisplay:10.37,2013-08-21 01:52:00,
2013-08-21 03:54:00,55.1,45.9,30.06,North,0,0.0,0.0,71,0.52,CLR,,11.80,0.0,WeatherDisplay:10.37,2013-08-21 01:54:00,
2013-08-21 03:55:00,54.4,45.9,30.06,East,99,0.0,0.0,73,0.52,CLR,,11.80,0.0,WeatherDisplay:10.37,2013-08-21 01:55:00,
2013-08-21 03:56:00,54.4,46.3,30.10,NNE,23,0.0,0.0,74,0.52,CLR,,11.80,0.0,WeatherDisplay:10.37,2013-08-21 01:56:00,
2013-08-21 03:57:00,54.4,46.3,30.10,NE,42,5.8,5.8,74,0.75,RA,,12.03,0.0,WeatherDisplay:10.37,2013-08-21 01:57:00,
2013-08-21 03:59:00,54.4,46.3,30.10,NE,42,0.0,0.0,74,1.35,RA,,12.63,0.0,WeatherDisplay:10.37,2013-08-21 01:59:00,
2013-08-21 04:00:00,54.4,46.3,30.10,NE,42,0.0,0.0,74,1.35,RA,,12.63,0.0,WeatherDisplay:10.37,2013-08-21 02:00:00,
2013-08-21 04:01:00,54.4,46.3,30.10,NE,42,0.0,0.0,74,1.71,RA,,12.99,0.0,WeatherDisplay:10.37,2013-08-21 02:01:00,
2013-08-21 04:02:00,54.4,46.3,30.09,NE,42,0.0,0.0,74,1.71,RA,,12.99,0.0,WeatherDisplay:10.37,2013-08-21 02:02:00,
2013-08-21 04:05:00,54.4,46.3,30.09,NE,42,0.0,0.0,74,2.62,RA,,13.90,0.0,WeatherDisplay:10.37,2013-08-21 02:05:00,
2013-08-21 04:07:00,54.4,46.3,30.09,North,349,3.5,3.5,74,3.18,RA,,14.46,0.0,WeatherDisplay:10.37,2013-08-21 02:07:00,
2013-08-21 04:10:00,54.4,46.3,30.09,SW,216,0.0,0.0,74,3.18,,,14.46,0.0,WeatherDisplay:10.37,2013-08-21 02:10:00,
2013-08-21 04:12:00,54.2,46.1,30.09,SW,216,0.0,0.0,74,2.66,CLR,,14.46,0.0,WeatherDisplay:10.37,2013-08-21 02:12:00,
2013-08-21 04:13:00,54.2,46.1,30.09,SW,216,0.0,0.0,74,2.66,CLR,,14.46,0.0,WeatherDisplay:10.37,2013-08-21 02:13:00,
2013-08-21 04:15:00,54.1,46.0,30.09,SSW,205,0.0,0.0,74,2.66,CLR,,14.46,0.0,WeatherDisplay:10.37,2013-08-21 02:15:00,
2013-08-21 04:17:00,54.1,46.0,30.09,SSW,199,0.0,0.0,74,3.46,RA,,15.26,0.0,WeatherDisplay:10.37,2013-08-21 02:17:00,
2013-08-21 04:18:00,54.1,46.0,30.09,NW,305,0.0,0.0,74,3.46,RA,,15.26,0.0,WeatherDisplay:10.37,2013-08-21 02:18:00,
2013-08-21 04:20:00,54.1,46.3,30.09,NW,305,0.0,0.0,75,3.46,,,15.26,0.0,WeatherDisplay:10.37,2013-08-21 02:20:00,
2013-08-21 04:22:00,54.1,46.3,30.09,East,97,2.3,2.3,75,3.82,RA,,15.62,0.0,WeatherDisplay:10.37,2013-08-21 02:22:00,
2013-08-21 04:23:00,54.1,46.3,30.09,East,97,2.3,0.0,75,3.82,RA,,15.97,0.0,WeatherDisplay:10.37,2013-08-21 02:23:00,
2013-08-21 04:25:00,53.9,46.2,30.09,East,97,0.0,0.0,75,4.57,RA,,16.53,0.0,WeatherDisplay:10.37,2013-08-21 02:25:00,
2013-08-21 04:26:00,53.9,46.2,30.09,East,97,0.0,0.0,75,4.57,RA,,16.53,0.0,WeatherDisplay:10.37,2013-08-21 02:26:00,
2013-08-21 04:28:00,53.9,46.2,30.09,WNW,289,3.5,0.0,75,5.17,RA,,16.97,0.0,WeatherDisplay:10.37,2013-08-21 02:28:00,
2013-08-21 04:29:00,53.8,46.4,30.09,WNW,289,3.5,0.0,76,5.17,RA,,16.97,0.0,WeatherDisplay:10.37,2013-08-21 02:29:00,
2013-08-21 04:31:00,53.8,46.4,30.09,WNW,289,0.0,0.0,76,5.17,RA,,17.72,0.0,WeatherDisplay:10.37,2013-08-21 02:31:00,
2013-08-21 04:33:00,53.8,46.4,30.09,NNE,17,4.6,4.6,76,6.36,RA,,18.40,0.0,WeatherDisplay:10.37,2013-08-21 02:33:00,
2013-08-21 04:34:00,53.8,46.4,30.09,NNE,17,0.0,0.0,76,6.60,RA,,18.40,0.0,WeatherDisplay:10.37,2013-08-21 02:34:00,
2013-08-21 04:36:00,53.6,46.2,30.09,NNE,17,0.0,0.0,76,6.60,RA,,18.40,0.0,WeatherDisplay:10.37,2013-08-21 02:36:00,
2013-08-21 04:38:00,53.6,46.2,30.09,NNE,17,0.0,0.0,76,7.31,RA,,19.11,0.0,WeatherDisplay:10.37,2013-08-21 02:38:00,
2013-08-21 04:39:00,53.6,46.2,30.09,NNE,17,0.0,0.0,76,7.31,RA,,19.11,0.0,WeatherDisplay:10.37,2013-08-21 02:39:00,
2013-08-21 04:41:00,53.6,46.2,30.09,NNE,17,0.0,0.0,76,7.31,,,19.11,0.0,WeatherDisplay:10.37,2013-08-21 02:41:00,
2013-08-21 04:44:00,53.6,46.2,30.09,SSE,157,0.0,0.3,76,7.31,CLR,,19.70,0.0,WeatherDisplay:10.37,2013-08-21 02:44:00,
2013-08-21 04:45:00,53.6,46.2,30.09,SSE,150,2.3,2.3,76,7.90,RA,,19.70,0.0,WeatherDisplay:10.37,2013-08-21 02:45:00,
2013-08-21 04:46:00,53.6,46.2,30.09,SSE,150,2.3,0.0,76,7.90,RA,,19.70,0.0,WeatherDisplay:10.37,2013-08-21 02:46:00,
2013-08-21 04:47:00,53.6,46.2,30.09,SSE,157,0.0,0.0,76,7.90,RA,,19.70,0.0,WeatherDisplay:10.37,2013-08-21 02:47:00,
2013-08-21 04:49:00,53.6,46.2,30.09,ENE,78,0.0,0.0,76,7.90,,,19.70,0.0,WeatherDisplay:10.37,2013-08-21 02:49:00,
2013-08-21 04:51:00,53.6,46.6,30.09,ENE,78,0.0,0.0,77,8.22,RA,,20.02,0.0,WeatherDisplay:10.37,2013-08-21 02:51:00,
2013-08-21 04:53:00,53.6,46.6,30.09,East,96,0.0,0.0,77,8.22,RA,,20.02,0.0,WeatherDisplay:10.37,2013-08-21 02:53:00,
2013-08-21 04:54:00,53.6,46.6,30.09,East,96,0.0,0.0,77,8.78,RA,,20.58,0.0,WeatherDisplay:10.37,2013-08-21 02:54:00,
2013-08-21 04:56:00,53.6,46.6,30.09,East,97,0.0,0.0,77,8.78,RA,,20.58,0.0,WeatherDisplay:10.37,2013-08-21 02:56:00,
2013-08-21 04:57:00,53.6,46.6,30.08,East,97,0.0,0.0,77,8.55,,,20.58,0.0,WeatherDisplay:10.37,2013-08-21 02:57:00,
2013-08-21 04:58:00,53.6,46.6,30.09,East,97,0.0,0.0,77,8.55,,,20.58,0.0,WeatherDisplay:10.37,2013-08-21 02:58:00,
2013-08-21 04:59:00,53.6,46.6,30.08,East,97,0.0,0.0,77,7.95,CLR,,20.58,0.0,WeatherDisplay:10.37,2013-08-21 02:59:00,
2013-08-21 05:00:00,53.6,46.6,30.08,East,97,0.0,0.0,77,7.95,CLR,,20.58,0.0,WeatherDisplay:10.37,2013-08-21 03:00:00,
2013-08-21 05:02:00,53.6,46.6,30.09,East,97,0.0,0.0,77,7.59,CLR,,20.58,0.0,WeatherDisplay:10.37,2013-08-21 03:02:00,
2013-08-21 05:03:00,53.6,46.6,30.09,East,97,0.0,0.0,77,7.59,CLR,,20.58,0.0,WeatherDisplay:10.37,2013-08-21 03:03:00,
2013-08-21 05:05:00,53.6,46.6,30.09,ESE,103,0.0,0.0,77,6.68,CLR,,20.58,0.0,WeatherDisplay:10.37,2013-08-21 03:05:00,
2013-08-21 05:07:00,53.6,46.6,30.09,ESE,103,0.0,0.0,77,6.12,CLR,,20.58,0.0,WeatherDisplay:10.37,2013-08-21 03:07:00,
2013-08-21 05:08:00,53.6,46.6,30.09,ESE,104,0.0,0.0,77,6.12,CLR,,20.58,0.0,WeatherDisplay:10.37,2013-08-21 03:08:00,
2013-08-21 05:10:00,53.6,46.9,30.09,ESE,106,0.0,0.0,78,6.28,RA,,20.74,0.0,WeatherDisplay:10.37,2013-08-21 03:10:00,
2013-08-21 05:12:00,53.6,46.9,30.09,ESE,106,0.0,0.0,78,6.83,RA,,21.29,0.0,WeatherDisplay:10.37,2013-08-21 03:12:00,
2013-08-21 05:13:00,53.6,46.9,30.09,ESE,106,0.0,0.0,78,6.83,RA,,21.29,0.0,WeatherDisplay:10.37,2013-08-21 03:13:00,
2013-08-21 05:16:00,53.6,46.9,30.09,ESE,106,0.0,0.0,78,6.83,,,21.29,0.0,WeatherDisplay:10.37,2013-08-21 03:16:00,
2013-08-21 05:17:00,52.9,46.6,30.09,East,99,0.0,0.0,79,6.03,CLR,,21.29,0.0,WeatherDisplay:10.37,2013-08-21 03:17:00,
2013-08-21 05:18:00,52.9,46.6,30.09,East,99,0.0,0.0,79,6.03,CLR,,21.29,0.0,WeatherDisplay:10.37,2013-08-21 03:18:00,
2013-08-21 05:19:00,52.9,46.6,30.09,NNE,18,0.0,0.0,79,6.03,CLR,,21.29,0.0,WeatherDisplay:10.37,2013-08-21 03:19:00,
2013-08-21 05:21:00,52.9,46.6,30.09,NE,45,0.0,0.0,79,6.03,CLR,,21.29,0.0,WeatherDisplay:10.37,2013-08-21 03:21:00,
2013-08-21 05:22:00,52.9,46.6,30.09,NE,45,0.0,0.0,79,5.67,CLR,,21.29,0.0,WeatherDisplay:10.37,2013-08-21 03:22:00,
2013-08-21 05:24:00,52.9,46.6,30.08,NE,45,0.0,0.0,79,5.52,RA,,21.65,0.0,WeatherDisplay:10.37,2013-08-21 03:24:00,
2013-08-21 05:25:00,52.9,46.6,30.08,NE,45,0.0,0.0,79,5.52,RA,,21.65,0.0,WeatherDisplay:10.37,2013-08-21 03:25:00,
2013-08-21 05:27:00,52.9,46.6,30.08,NE,45,0.0,0.0,79,4.92,,,21.65,0.0,WeatherDisplay:10.37,2013-08-21 03:27:00,
2013-08-21 05:29:00,52.9,46.6,30.08,NE,49,0.0,0.0,79,4.68,CLR,,21.65,0.0,WeatherDisplay:10.37,2013-08-21 03:29:00,
2013-08-21 05:30:00,52.9,46.6,30.08,NE,49,0.0,0.0,79,4.68,CLR,,21.65,0.0,WeatherDisplay:10.37,2013-08-21 03:30:00,
2013-08-21 05:32:00,52.9,46.6,30.08,NE,49,0.0,0.0,79,3.69,CLR,,21.65,0.0,WeatherDisplay:10.37,2013-08-21 03:32:00,
2013-08-21 05:33:00,52.9,46.6,30.08,NE,49,0.0,0.0,79,3.49,CLR,,21.65,0.0,WeatherDisplay:10.37,2013-08-21 03:33:00,
2013-08-21 05:34:00,52.9,46.6,30.08,NE,49,0.0,0.0,79,3.25,CLR,,21.65,0.0,WeatherDisplay:10.37,2013-08-21 03:34:00,
2013-08-21 05:36:00,52.9,46.6,30.08,NNW,344,2.3,2.3,79,3.25,CLR,,21.65,0.0,WeatherDisplay:10.37,2013-08-21 03:36:00,
2013-08-21 05:37:00,52.9,46.6,30.08,NNW,344,2.3,2.3,79,2.54,CLR,,21.65,0.0,WeatherDisplay:10.37,2013-08-21 03:37:00,
2013-08-21 05:38:00,52.9,46.2,30.08,NNW,342,2.3,2.3,78,2.54,CLR,,22.44,0.0,WeatherDisplay:10.37,2013-08-21 03:38:00,
2013-08-21 05:39:00,52.9,46.2,30.08,NW,306,5.0,5.0,78,3.33,RA,,22.44,0.0,WeatherDisplay:10.37,2013-08-21 03:39:00,
2013-08-21 05:41:00,52.9,46.2,30.08,NNW,339,4.6,4.6,78,3.85,RA,,22.96,0.0,WeatherDisplay:10.37,2013-08-21 03:41:00,
2013-08-21 05:42:00,52.9,46.2,30.08,NNW,333,3.5,3.5,78,3.85,RA,,22.96,0.0,WeatherDisplay:10.37,2013-08-21 03:42:00,
2013-08-21 05:43:00,52.9,46.2,30.08,NNW,333,0.0,0.0,78,3.85,RA,,22.96,0.0,WeatherDisplay:10.37,2013-08-21 03:43:00,
2013-08-21 05:44:00,52.9,46.2,30.08,NNW,333,0.0,0.0,78,3.85,,,22.96,0.0,WeatherDisplay:10.37,2013-08-21 03:44:00,
2013-08-21 05:46:00,53.1,46.8,30.08,NNW,333,0.0,0.0,79,3.26,CLR,,22.96,0.0,WeatherDisplay:10.37,2013-08-21 03:46:00,
2013-08-21 05:47:00,53.1,46.8,30.08,NNW,333,0.0,0.0,79,3.26,CLR,,22.96,0.0,WeatherDisplay:10.37,2013-08-21 03:47:00,
2013-08-21 05:49:00,53.1,46.8,30.08,NNW,333,0.0,0.0,79,3.70,RA,,23.40,0.0,WeatherDisplay:10.37,2013-08-21 03:49:00,
2013-08-21 05:50:00,53.1,46.8,30.08,NNW,333,0.0,0.0,79,3.70,RA,,23.83,0.0,WeatherDisplay:10.37,2013-08-21 03:50:00,
2013-08-21 05:51:00,53.1,46.8,30.08,NNW,333,0.0,0.0,79,3.81,RA,,23.83,0.0,WeatherDisplay:10.37,2013-08-21 03:51:00,
2013-08-21 05:52:00,53.1,46.8,30.08,NNW,333,0.0,0.0,79,3.81,RA,,23.83,0.0,WeatherDisplay:10.37,2013-08-21 03:52:00,
2013-08-21 05:54:00,52.9,46.6,30.08,NNW,333,0.0,0.0,79,3.25,,,23.83,0.0,WeatherDisplay:10.37,2013-08-21 03:54:00,
2013-08-21 05:55:00,52.9,46.6,30.08,NNW,333,0.0,0.0,79,3.25,CLR,,23.83,0.0,WeatherDisplay:10.37,2013-08-21 03:55:00,
2013-08-21 05:57:00,52.9,46.6,30.08,NNW,333,0.0,0.0,79,3.81,RA,,24.51,0.0,WeatherDisplay:10.37,2013-08-21 03:57:00,
2013-08-21 05:58:00,52.9,46.6,30.08,NNW,333,0.0,0.0,79,4.05,RA,,24.63,0.0,WeatherDisplay:10.37,2013-08-21 03:58:00,
2013-08-21 05:59:00,52.8,46.8,30.08,NNW,333,0.0,0.0,80,4.32,RA,,24.90,0.0,WeatherDisplay:10.37,2013-08-21 03:59:00,
2013-08-21 06:00:00,52.8,46.8,30.08,NNW,333,0.0,0.0,80,4.32,RA,,24.90,0.0,WeatherDisplay:10.37,2013-08-21 04:00:00,
2013-08-21 06:01:00,52.8,46.8,30.08,NNW,333,0.0,0.0,80,4.32,RA,,24.90,0.0,WeatherDisplay:10.37,2013-08-21 04:01:00,
2013-08-21 06:06:00,52.8,46.8,30.08,North,356,3.5,3.5,80,4.32,CLR,,24.90,0.0,WeatherDisplay:10.37,2013-08-21 04:06:00,
2013-08-21 06:07:00,52.8,46.8,30.08,North,356,3.5,3.5,80,4.32,CLR,,24.90,0.0,WeatherDisplay:10.37,2013-08-21 04:07:00,
2013-08-21 06:11:00,52.8,46.8,30.08,North,356,0.0,0.0,80,4.16,CLR,,24.90,0.0,WeatherDisplay:10.37,2013-08-21 04:11:00,
2013-08-21 06:12:00,52.8,46.8,30.08,North,353,1.2,1.2,80,3.61,CLR,,24.90,0.0,WeatherDisplay:10.37,2013-08-21 04:12:00,
2013-08-21 06:16:00,52.8,46.8,30.08,WNW,285,3.5,3.5,80,3.61,CLR,,24.90,0.0,WeatherDisplay:10.37,2013-08-21 04:16:00,
2013-08-21 06:17:00,52.8,46.8,30.08,West,261,3.5,3.5,80,3.61,CLR,,24.90,0.0,WeatherDisplay:10.37,2013-08-21 04:17:00,
2013-08-21 06:21:00,52.9,46.9,30.08,NW,308,0.0,0.0,80,4.33,RA,,25.62,0.0,WeatherDisplay:10.37,2013-08-21 04:21:00,
2013-08-21 06:22:00,52.9,46.9,30.08,NW,308,0.0,0.0,80,4.33,RA,,25.62,0.0,WeatherDisplay:10.37,2013-08-21 04:22:00,
2013-08-21 06:26:00,52.9,46.2,30.08,NW,315,0.0,0.0,78,3.97,CLR,,25.62,0.0,WeatherDisplay:10.37,2013-08-21 04:26:00,
2013-08-21 06:27:00,52.9,46.2,30.08,NW,315,0.0,0.0,78,3.97,CLR,,25.62,0.0,WeatherDisplay:10.37,2013-08-21 04:27:00,
2013-08-21 06:28:00,52.9,46.2,30.08,NW,315,0.0,0.0,78,3.97,CLR,,25.62,0.0,WeatherDisplay:10.37,2013-08-21 04:28:00,
2013-08-21 06:32:00,52.9,46.2,30.08,NW,315,0.0,0.0,78,3.97,CLR,,25.62,0.0,WeatherDisplay:10.37,2013-08-21 04:32:00,
2013-08-21 06:33:00,52.9,46.2,30.08,NW,315,0.0,0.0,78,3.97,CLR,,25.62,0.0,WeatherDisplay:10.37,2013-08-21 04:33:00,
2013-08-21 06:37:00,52.9,46.2,30.08,NW,315,0.0,0.0,78,3.97,OVC,,25.62,0.0,WeatherDisplay:10.37,2013-08-21 04:37:00,
2013-08-21 06:38:00,52.9,46.2,30.08,NW,315,0.0,0.0,78,3.97,OVC,,25.62,0.0,WeatherDisplay:10.37,2013-08-21 04:38:00,
2013-08-21 06:42:00,53.1,46.8,30.08,SW,229,0.0,0.0,79,4.09,RA,,27.28,0.0,WeatherDisplay:10.37,2013-08-21 04:42:00,
2013-08-21 06:43:00,53.1,46.8,30.08,East,100,0.0,0.0,79,4.09,RA,,27.28,0.0,WeatherDisplay:10.37,2013-08-21 04:43:00,
2013-08-21 06:48:00,52.9,46.9,30.08,NE,34,3.5,3.5,80,5.03,RA,,28.43,0.0,WeatherDisplay:10.37,2013-08-21 04:48:00,
2013-08-21 06:49:00,52.9,46.9,30.08,East,86,0.0,0.0,80,5.03,RA,,28.43,0.0,WeatherDisplay:10.37,2013-08-21 04:49:00,
2013-08-21 06:53:00,52.9,46.9,30.08,NE,44,0.0,0.0,80,5.83,RA,,29.66,0.0,WeatherDisplay:10.37,2013-08-21 04:53:00,
2013-08-21 06:54:00,52.9,46.9,30.08,NE,45,0.0,0.0,80,6.11,RA,,29.94,0.0,WeatherDisplay:10.37,2013-08-21 04:54:00,
2013-08-21 06:58:00,52.8,47.1,30.09,East,82,0.0,0.0,81,6.23,RA,,30.86,5.5,WeatherDisplay:10.37,2013-08-21 04:58:00,
2013-08-21 06:59:00,52.8,47.1,30.09,East,83,0.0,0.0,81,6.19,RA,,31.09,5.5,WeatherDisplay:10.37,2013-08-21 04:59:00,
2013-08-21 07:03:00,52.6,46.9,30.09,ESE,110,0.0,0.0,81,7.11,RA,,32.28,7.7,WeatherDisplay:10.37,2013-08-21 05:03:00,
2013-08-21 07:04:00,52.6,46.9,30.09,ESE,110,0.0,0.0,81,7.38,RA,,32.28,7.7,WeatherDisplay:10.37,2013-08-21 05:04:00,
2013-08-21 07:05:00,52.6,47.3,30.09,ESE,114,0.0,0.0,82,7.38,RA,,32.52,7.7,WeatherDisplay:10.37,2013-08-21 05:05:00,
2013-08-21 07:08:00,52.5,47.2,30.09,SE,126,0.0,0.0,82,8.22,RA,,33.47,9.9,WeatherDisplay:10.37,2013-08-21 05:08:00,
2013-08-21 07:09:00,52.5,47.2,30.09,SE,126,0.0,0.0,82,8.57,RA,,33.47,9.9,WeatherDisplay:10.37,2013-08-21 05:09:00,
2013-08-21 07:10:00,52.5,47.2,30.09,SW,236,0.0,0.0,82,8.77,RA,,33.95,9.9,WeatherDisplay:10.37,2013-08-21 05:10:00,
2013-08-21 07:11:00,52.5,47.2,30.09,SW,236,0.0,0.0,82,9.05,RA,,33.95,12.1,WeatherDisplay:10.37,2013-08-21 05:11:00,
2013-08-21 07:14:00,52.5,47.2,30.09,SW,236,0.0,0.0,82,9.77,RA,,34.67,12.1,WeatherDisplay:10.37,2013-08-21 05:14:00,
2013-08-21 07:15:00,52.5,47.2,30.10,SW,236,0.0,0.0,82,9.77,RA,,34.67,12.1,WeatherDisplay:10.37,2013-08-21 05:15:00,
2013-08-21 07:16:00,52.5,47.2,30.10,SSE,165,0.0,0.0,82,9.77,RA,,34.67,12.1,WeatherDisplay:10.37,2013-08-21 05:16:00,
2013-08-21 07:19:00,52.5,47.2,30.10,SSE,165,0.0,0.0,82,9.49,FEW,,34.67,12.1,WeatherDisplay:10.37,2013-08-21 05:19:00,
2013-08-21 07:20:00,52.5,47.2,30.10,SSE,165,0.0,0.0,82,9.05,FEW,,34.67,12.1,WeatherDisplay:10.37,2013-08-21 05:20:00,
2013-08-21 07:21:00,52.5,47.2,30.10,SSE,165,0.0,0.0,82,9.05,FEW,,34.67,12.1,WeatherDisplay:10.37,2013-08-21 05:21:00,
2013-08-21 07:25:00,52.5,47.2,30.10,SSE,165,0.0,0.0,82,9.05,FEW,,34.67,12.1,WeatherDisplay:10.37,2013-08-21 05:25:00,
2013-08-21 07:26:00,52.5,47.2,30.10,SSE,168,0.0,0.0,82,9.05,FEW,,34.67,12.1,WeatherDisplay:10.37,2013-08-21 05:26:00,
2013-08-21 07:27:00,52.5,47.2,30.10,SSE,168,0.0,0.0,82,9.05,FEW,,34.67,12.1,WeatherDisplay:10.37,2013-08-21 05:27:00,
2013-08-21 07:30:00,52.5,47.2,30.10,ENE,62,0.0,0.0,82,9.05,FEW,,34.67,12.1,WeatherDisplay:10.37,2013-08-21 05:30:00,
2013-08-21 07:32:00,52.5,47.2,30.10,ENE,62,0.0,0.0,82,9.05,FEW,,34.67,12.1,WeatherDisplay:10.37,2013-08-21 05:32:00,
2013-08-21 07:35:00,52.2,46.9,30.10,ESE,117,0.0,0.0,82,9.05,FEW,,34.67,12.1,WeatherDisplay:10.37,2013-08-21 05:35:00,
2013-08-21 07:37:00,52.3,47.0,30.10,ESE,119,0.0,0.0,82,9.05,FEW,,34.67,19.8,WeatherDisplay:10.37,2013-08-21 05:37:00,
2013-08-21 07:38:00,52.3,47.0,30.10,ESE,119,0.0,0.0,82,9.05,FEW,,34.67,19.8,WeatherDisplay:10.37,2013-08-21 05:38:00,
2013-08-21 07:40:00,52.3,47.0,30.10,ESE,119,0.0,0.0,82,8.30,FEW,,34.67,19.8,WeatherDisplay:10.37,2013-08-21 05:40:00,
2013-08-21 07:42:00,52.3,47.0,30.10,ESE,119,0.0,0.0,82,7.62,FEW,,34.67,19.8,WeatherDisplay:10.37,2013-08-21 05:42:00,
2013-08-21 07:43:00,52.3,47.0,30.10,ESE,119,0.0,0.0,82,7.62,FEW,,34.67,19.8,WeatherDisplay:10.37,2013-08-21 05:43:00,
2013-08-21 07:46:00,52.3,47.0,30.10,ESE,119,0.0,0.0,82,6.63,FEW,,34.67,19.8,WeatherDisplay:10.37,2013-08-21 05:46:00,
2013-08-21 07:47:00,52.3,47.0,30.11,ESE,119,0.0,0.0,82,6.63,FEW,,34.67,19.8,WeatherDisplay:10.37,2013-08-21 05:47:00,
2013-08-21 07:48:00,52.3,47.0,30.10,ESE,119,0.0,0.0,82,6.24,FEW,,34.67,19.8,WeatherDisplay:10.37,2013-08-21 05:48:00,
2013-08-21 07:52:00,52.3,47.0,30.10,SE,131,0.0,0.0,82,5.24,FEW,,34.67,19.8,WeatherDisplay:10.37,2013-08-21 05:52:00,
2013-08-21 07:53:00,52.3,47.0,30.10,SE,131,0.0,0.0,82,5.24,FEW,,34.67,19.8,WeatherDisplay:10.37,2013-08-21 05:53:00,
2013-08-21 07:54:00,52.3,47.0,30.11,SE,131,0.0,0.0,82,4.73,FEW,,34.67,19.8,WeatherDisplay:10.37,2013-08-21 05:54:00,
2013-08-21 07:57:00,52.3,47.0,30.11,SE,131,0.0,0.0,82,4.17,FEW,,34.67,19.8,WeatherDisplay:10.37,2013-08-21 05:57:00,
2013-08-21 07:58:00,52.3,47.0,30.11,SE,131,0.0,0.0,82,3.81,FEW,,34.67,19.8,WeatherDisplay:10.37,2013-08-21 05:58:00,
2013-08-21 07:59:00,52.3,47.0,30.11,SE,131,0.0,0.0,82,3.58,FEW,,34.67,19.8,WeatherDisplay:10.37,2013-08-21 05:59:00,
2013-08-21 08:02:00,52.3,47.0,30.08,North,0,0.0,0.0,82,3.06,FEW,,34.67,0.0,WeatherDisplay:10.37,2013-08-21 06:02:00,
2013-08-21 08:03:00,52.3,47.0,30.08,North,0,0.0,0.0,82,2.66,FEW,,34.67,0.0,WeatherDisplay:10.37,2013-08-21 06:03:00,
2013-08-21 08:04:00,52.3,47.0,30.08,North,0,0.0,0.0,82,2.39,FEW,,34.67,0.0,WeatherDisplay:10.37,2013-08-21 06:04:00,
2013-08-21 08:08:00,52.3,47.0,30.08,North,0,0.0,0.0,82,1.55,FEW,,34.67,0.0,WeatherDisplay:10.37,2013-08-21 06:08:00,
2013-08-21 08:09:00,52.3,47.0,30.08,North,0,0.0,0.0,82,1.55,FEW,,34.67,0.0,WeatherDisplay:10.37,2013-08-21 06:09:00,
2013-08-21 08:10:00,52.3,47.0,30.08,North,0,0.0,0.0,82,1.00,FEW,,34.67,0.0,WeatherDisplay:10.37,2013-08-21 06:10:00,
2013-08-21 08:13:00,52.3,47.0,30.08,North,0,0.0,0.0,82,0.72,FEW,,34.67,0.0,WeatherDisplay:10.37,2013-08-21 06:13:00,
2013-08-21 08:14:00,52.3,47.0,30.08,North,0,0.0,0.0,82,0.72,FEW,,34.67,0.0,WeatherDisplay:10.37,2013-08-21 06:14:00,
2013-08-21 08:15:00,52.3,47.0,30.08,North,0,0.0,0.0,82,0.00,FEW,,34.67,0.0,WeatherDisplay:10.37,2013-08-21 06:15:00,
2013-08-21 08:19:00,52.3,47.0,30.08,North,0,0.0,0.0,82,0.00,FEW,,34.67,0.0,WeatherDisplay:10.37,2013-08-21 06:19:00,
2013-08-21 08:20:00,52.3,47.0,30.08,North,0,0.0,0.0,82,0.00,FEW,,34.67,0.0,WeatherDisplay:10.37,2013-08-21 06:20:00,
2013-08-21 08:21:00,52.3,47.0,30.08,North,0,0.0,0.0,82,0.00,FEW,,34.67,0.0,WeatherDisplay:10.37,2013-08-21 06:21:00,
2013-08-21 08:24:00,52.3,47.0,30.08,North,0,0.0,0.0,82,0.00,FEW,,34.67,0.0,WeatherDisplay:10.37,2013-08-21 06:24:00,
2013-08-21 08:25:00,52.3,47.0,30.08,North,0,0.0,0.0,82,0.00,FEW,,34.67,0.0,WeatherDisplay:10.37,2013-08-21 06:25:00,
2013-08-21 08:26:00,52.3,47.0,30.08,North,0,0.0,0.0,82,0.00,FEW,,34.67,0.0,WeatherDisplay:10.37,2013-08-21 06:26:00,
2013-08-21 08:29:00,52.3,47.0,30.08,North,0,0.0,0.0,82,0.00,FEW,,34.67,0.0,WeatherDisplay:10.37,2013-08-21 06:29:00,
2013-08-21 08:30:00,52.3,47.0,30.08,North,0,0.0,0.0,82,0.00,FEW,,34.67,0.0,WeatherDisplay:10.37,2013-08-21 06:30:00,
2013-08-21 08:31:00,52.3,47.0,30.08,North,0,0.0,0.0,82,0.00,FEW,,34.67,0.0,WeatherDisplay:10.37,2013-08-21 06:31:00,
2013-08-21 08:34:00,55.3,49.9,30.10,NE,49,0.0,0.0,82,0.00,FEW,,34.67,0.0,WeatherDisplay:10.37,2013-08-21 06:34:00,
2013-08-21 08:35:00,55.3,49.9,30.10,NE,49,0.0,0.0,82,0.00,FEW,,34.67,0.0,WeatherDisplay:10.37,2013-08-21 06:35:00,
2013-08-21 08:36:00,55.3,49.6,30.10,NE,49,0.0,0.0,81,0.00,FEW,,34.67,0.0,WeatherDisplay:10.37,2013-08-21 06:36:00,
2013-08-21 08:37:00,55.3,49.6,30.10,NE,49,0.0,0.0,81,0.00,FEW,,34.67,0.0,WeatherDisplay:10.37,2013-08-21 06:37:00,
2013-08-21 08:40:00,55.3,49.6,30.10,NE,52,0.0,0.0,81,0.56,RA,,35.23,0.0,WeatherDisplay:10.37,2013-08-21 06:40:00,
2013-08-21 08:41:00,55.3,49.6,30.10,NE,52,0.0,0.0,81,0.56,RA,,35.23,0.0,WeatherDisplay:10.37,2013-08-21 06:41:00,
2013-08-21 08:42:00,55.9,50.2,30.10,NE,52,0.0,0.0,81,0.56,FEW,,35.23,0.0,WeatherDisplay:10.37,2013-08-21 06:42:00,
2013-08-21 08:45:00,56.2,50.4,30.10,NE,52,0.0,0.0,81,0.95,RA,,35.62,0.0,WeatherDisplay:10.37,2013-08-21 06:45:00,
2013-08-21 08:46:00,56.2,50.4,30.10,NE,52,0.0,0.0,81,0.95,RA,,35.62,0.0,WeatherDisplay:10.37,2013-08-21 06:46:00,
2013-08-21 08:48:00,56.2,50.4,30.10,East,88,0.0,0.0,81,0.95,FEW,,35.62,0.0,WeatherDisplay:10.37,2013-08-21 06:48:00,
2013-08-21 08:50:00,56.2,50.4,30.10,East,88,0.0,0.0,81,0.95,FEW,,35.62,0.0,WeatherDisplay:10.37,2013-08-21 06:50:00,
2013-08-21 08:51:00,56.2,50.4,30.10,East,88,0.0,0.0,81,0.95,FEW,,35.62,0.0,WeatherDisplay:10.37,2013-08-21 06:51:00,
2013-08-21 08:52:00,56.2,50.4,30.10,SE,145,0.0,0.0,81,0.95,FEW,,35.62,0.0,WeatherDisplay:10.37,2013-08-21 06:52:00,
2013-08-21 08:53:00,56.2,50.4,30.10,SE,145,0.0,0.0,81,0.95,FEW,,35.62,0.0,WeatherDisplay:10.37,2013-08-21 06:53:00,
2013-08-21 08:55:00,56.2,49.4,30.10,South,178,0.0,0.0,78,0.95,FEW,,35.62,354.2,WeatherDisplay:10.37,2013-08-21 06:55:00,
2013-08-21 08:56:00,56.2,49.4,30.10,South,178,0.0,0.0,78,0.95,FEW,,35.62,354.2,WeatherDisplay:10.37,2013-08-21 06:56:00,
2013-08-21 08:58:00,56.3,49.5,30.10,SSE,148,0.0,0.0,78,0.95,FEW,,35.62,354.2,WeatherDisplay:10.37,2013-08-21 06:58:00,
2013-08-21 08:59:00,56.3,49.5,30.10,SSE,148,0.0,0.0,78,0.95,FEW,,35.62,354.2,WeatherDisplay:10.37,2013-08-21 06:59:00,
2013-08-21 09:00:00,56.3,49.5,30.11,SE,140,0.0,0.0,78,0.95,FEW,,35.74,354.2,WeatherDisplay:10.37,2013-08-21 07:00:00,
2013-08-21 09:02:00,56.3,49.5,30.11,SE,140,0.0,0.0,78,1.07,RA,,35.74,354.2,WeatherDisplay:10.37,2013-08-21 07:02:00,
2013-08-21 09:03:00,56.3,49.5,30.11,SE,140,0.0,0.0,78,1.07,RA,,35.74,354.2,WeatherDisplay:10.37,2013-08-21 07:03:00,
2013-08-21 09:04:00,56.3,49.5,30.11,SE,140,0.0,0.0,78,1.07,FEW,,35.74,354.2,WeatherDisplay:10.37,2013-08-21 07:04:00,
2013-08-21 09:05:00,57.2,50.1,30.10,SE,140,0.0,0.0,77,1.07,FEW,,35.74,354.2,WeatherDisplay:10.37,2013-08-21 07:05:00,
2013-08-21 09:07:00,57.2,50.1,30.10,SE,140,0.0,0.0,77,1.07,FEW,,35.74,354.2,WeatherDisplay:10.37,2013-08-21 07:07:00,
2013-08-21 09:08:00,57.2,50.1,30.10,SE,140,0.0,0.0,77,1.07,FEW,,35.74,354.2,WeatherDisplay:10.37,2013-08-21 07:08:00,
2013-08-21 09:09:00,57.2,50.1,30.10,SE,140,0.0,0.0,77,1.07,FEW,,35.74,354.2,WeatherDisplay:10.37,2013-08-21 07:09:00,
2013-08-21 09:11:00,57.2,50.1,30.10,SE,140,0.0,0.0,77,1.07,FEW,,35.74,354.2,WeatherDisplay:10.37,2013-08-21 07:11:00,
2013-08-21 09:12:00,57.2,50.1,30.11,SW,230,1.0,1.0,77,1.07,FEW,,35.74,415.8,WeatherDisplay:10.37,2013-08-21 07:12:00,
2013-08-21 09:13:00,57.5,50.3,30.10,SE,136,1.2,1.2,77,1.07,FEW,,35.74,415.8,WeatherDisplay:10.37,2013-08-21 07:13:00,
2013-08-21 09:14:00,57.5,50.3,30.10,SE,133,3.0,3.0,77,1.67,RA,,36.34,415.8,WeatherDisplay:10.37,2013-08-21 07:14:00,
2013-08-21 09:16:00,57.6,50.4,30.10,SE,133,3.5,0.0,77,1.67,RA,,36.34,415.8,WeatherDisplay:10.37,2013-08-21 07:16:00,
2013-08-21 09:18:00,57.6,50.4,30.10,SE,133,0.0,0.0,77,1.67,FEW,,36.34,415.8,WeatherDisplay:10.37,2013-08-21 07:18:00,
2013-08-21 09:19:00,57.8,50.6,30.10,SE,133,0.0,0.0,77,1.67,FEW,,36.34,415.8,WeatherDisplay:10.37,2013-08-21 07:19:00,
2013-08-21 09:21:00,57.8,50.6,30.10,SE,133,0.0,0.0,77,1.67,FEW,,36.34,415.8,WeatherDisplay:10.37,2013-08-21 07:21:00,
2013-08-21 09:23:00,57.8,50.6,30.10,SE,133,0.0,0.0,77,1.67,FEW,,36.34,415.8,WeatherDisplay:10.37,2013-08-21 07:23:00,
2013-08-21 09:24:00,57.8,50.6,30.10,SE,133,0.0,0.0,77,1.67,FEW,,36.34,415.8,WeatherDisplay:10.37,2013-08-21 07:24:00,
2013-08-21 09:26:00,58.3,51.1,30.11,NNE,17,2.3,2.3,77,1.67,FEW,,36.34,415.8,WeatherDisplay:10.37,2013-08-21 07:26:00,
2013-08-21 09:28:00,58.3,51.1,30.11,NNE,16,2.3,2.3,77,1.67,FEW,,36.34,415.8,WeatherDisplay:10.37,2013-08-21 07:28:00,
2013-08-21 09:29:00,58.3,51.1,30.11,WSW,247,2.3,2.3,77,1.67,FEW,,36.34,415.8,WeatherDisplay:10.37,2013-08-21 07:29:00,
2013-08-21 09:31:00,58.3,51.1,30.11,WSW,240,2.3,2.3,77,2.43,RA,,37.10,415.8,WeatherDisplay:10.37,2013-08-21 07:31:00,
2013-08-21 09:32:00,58.3,50.4,30.11,WSW,240,0.0,0.0,75,2.67,RA,,37.34,415.8,WeatherDisplay:10.37,2013-08-21 07:32:00,
2013-08-21 09:33:00,58.3,50.4,30.11,WSW,240,0.0,0.0,75,2.67,RA,,37.34,415.8,WeatherDisplay:10.37,2013-08-21 07:33:00,
2013-08-21 09:34:00,58.4,50.5,30.11,WSW,240,0.0,0.0,75,2.67,RA,,38.05,484.0,WeatherDisplay:10.37,2013-08-21 07:34:00,
2013-08-21 09:35:00,58.4,50.5,30.11,WSW,240,0.0,0.0,75,2.67,RA,,38.05,484.0,WeatherDisplay:10.37,2013-08-21 07:35:00,
2013-08-21 09:36:00,58.6,50.7,30.10,WSW,240,1.2,1.2,75,3.38,RA,,38.05,484.0,WeatherDisplay:10.37,2013-08-21 07:36:00,
2013-08-21 09:37:00,58.6,50.7,30.10,SW,233,1.2,1.2,75,3.38,RA,,38.05,484.0,WeatherDisplay:10.37,2013-08-21 07:37:00,
2013-08-21 09:39:00,58.9,51.0,30.10,SW,233,0.0,0.0,75,2.82,FEW,,38.05,484.0,WeatherDisplay:10.37,2013-08-21 07:39:00,
2013-08-21 09:40:00,58.9,51.0,30.10,SW,233,0.0,0.0,75,2.82,FEW,,38.05,484.0,WeatherDisplay:10.37,2013-08-21 07:40:00,
2013-08-21 09:41:00,58.9,51.0,30.11,SW,233,1.2,1.2,75,2.82,FEW,,38.05,484.0,WeatherDisplay:10.37,2013-08-21 07:41:00,
2013-08-21 09:43:00,58.9,51.0,30.11,WNW,282,2.3,2.3,75,3.30,RA,,38.53,484.0,WeatherDisplay:10.37,2013-08-21 07:43:00,
2013-08-21 09:45:00,58.9,51.0,30.11,SW,227,2.3,2.3,75,3.30,RA,,38.53,484.0,WeatherDisplay:10.37,2013-08-21 07:45:00,
2013-08-21 09:46:00,58.9,51.0,30.11,SW,227,1.2,1.2,75,2.91,FEW,,38.53,484.0,WeatherDisplay:10.37,2013-08-21 07:46:00,
2013-08-21 09:48:00,58.9,51.0,30.11,East,83,2.0,2.0,75,2.91,FEW,,38.53,484.0,WeatherDisplay:10.37,2013-08-21 07:48:00,
2013-08-21 09:50:00,58.9,51.0,30.11,East,85,2.3,2.3,75,2.91,FEW,,38.53,484.0,WeatherDisplay:10.37,2013-08-21 07:50:00,
2013-08-21 09:52:00,58.9,51.0,30.10,South,175,2.0,2.0,75,2.91,FEW,,38.53,484.0,WeatherDisplay:10.37,2013-08-21 07:52:00,
2013-08-21 09:53:00,58.9,51.0,30.10,South,175,2.3,2.3,75,2.91,FEW,,38.53,484.0,WeatherDisplay:10.37,2013-08-21 07:53:00,
2013-08-21 09:54:00,58.9,51.0,30.10,ENE,58,2.3,2.3,75,2.91,FEW,,38.53,484.0,WeatherDisplay:10.37,2013-08-21 07:54:00,
2013-08-21 09:55:00,58.9,51.0,30.10,ENE,58,2.3,2.3,75,2.91,FEW,,38.53,484.0,WeatherDisplay:10.37,2013-08-21 07:55:00,
2013-08-21 09:57:00,59.0,51.1,30.11,SSW,192,3.5,3.5,75,2.91,FEW,,38.53,484.0,WeatherDisplay:10.37,2013-08-21 07:57:00,
2013-08-21 09:58:00,59.0,51.1,30.11,SSW,192,3.5,0.0,75,2.91,FEW,,38.53,484.0,WeatherDisplay:10.37,2013-08-21 07:58:00,
2013-08-21 09:59:00,59.0,51.1,30.11,SSW,192,0.0,0.0,75,2.91,FEW,,38.53,484.0,WeatherDisplay:10.37,2013-08-21 07:59:00,
2013-08-21 10:00:00,59.0,51.1,30.11,SSW,192,0.0,0.0,75,2.91,FEW,,38.53,484.0,WeatherDisplay:10.37,2013-08-21 08:00:00,
2013-08-21 10:02:00,59.0,51.1,30.11,NW,320,0.0,0.0,75,2.79,FEW,,38.53,484.0,WeatherDisplay:10.37,2013-08-21 08:02:00,
2013-08-21 10:04:00,59.0,51.1,30.11,NW,313,2.0,2.0,75,2.79,FEW,,38.53,484.0,WeatherDisplay:10.37,2013-08-21 08:04:00,
2013-08-21 10:07:00,59.5,50.1,30.11,WNW,284,2.3,2.3,71,2.79,FEW,,38.53,576.4,WeatherDisplay:10.37,2013-08-21 08:07:00,
2013-08-21 10:09:00,59.5,50.1,30.11,SW,222,2.3,2.3,71,2.79,FEW,,38.53,576.4,WeatherDisplay:10.37,2013-08-21 08:09:00,
2013-08-21 10:12:00,59.5,50.1,30.11,SSE,151,0.0,0.0,71,2.79,FEW,,38.53,576.4,WeatherDisplay:10.37,2013-08-21 08:12:00,
2013-08-21 10:13:00,59.5,50.1,30.11,SSE,151,0.0,0.0,71,2.79,FEW,,38.53,576.4,WeatherDisplay:10.37,2013-08-21 08:13:00,
2013-08-21 10:14:00,59.5,50.1,30.11,South,191,1.2,1.2,71,2.19,FEW,,38.53,576.4,WeatherDisplay:10.37,2013-08-21 08:14:00,
2013-08-21 10:17:00,59.6,50.2,30.11,SSW,203,3.5,3.5,71,2.19,FEW,,38.53,576.4,WeatherDisplay:10.37,2013-08-21 08:17:00,
2013-08-21 10:18:00,59.6,50.2,30.11,SSW,203,3.5,3.5,71,2.19,FEW,,38.53,576.4,WeatherDisplay:10.37,2013-08-21 08:18:00,
2013-08-21 10:19:00,59.6,50.2,30.11,SSW,203,2.3,2.3,71,2.19,FEW,,38.53,576.4,WeatherDisplay:10.37,2013-08-21 08:19:00,
2013-08-21 10:20:00,59.8,50.4,30.11,SSW,203,2.3,2.3,71,2.19,FEW,,38.53,576.4,WeatherDisplay:10.37,2013-08-21 08:20:00,
2013-08-21 10:22:00,59.9,50.5,30.11,SW,230,2.3,2.3,71,2.98,RA,,39.32,576.4,WeatherDisplay:10.37,2013-08-21 08:22:00,
2013-08-21 10:23:00,59.9,50.5,30.11,SW,220,2.3,2.3,71,2.98,RA,,39.32,576.4,WeatherDisplay:10.37,2013-08-21 08:23:00,
2013-08-21 10:24:00,59.9,50.5,30.11,SW,220,0.0,0.0,71,2.98,RA,,39.32,576.4,WeatherDisplay:10.37,2013-08-21 08:24:00,
2013-08-21 10:26:00,59.9,50.5,30.11,SSW,200,0.0,0.0,71,2.98,FEW,,39.32,576.4,WeatherDisplay:10.37,2013-08-21 08:26:00,
2013-08-21 10:28:00,60.1,50.7,30.11,SSW,200,3.5,3.5,71,2.98,FEW,,39.32,576.4,WeatherDisplay:10.37,2013-08-21 08:28:00,
2013-08-21 10:30:00,60.4,50.6,30.11,SSW,200,2.3,2.3,70,3.42,RA,,39.76,650.1,WeatherDisplay:10.37,2013-08-21 08:30:00,
2013-08-21 10:31:00,60.4,50.6,30.11,SSW,205,2.3,2.3,70,3.21,RA,,40.31,650.1,WeatherDisplay:10.37,2013-08-21 08:31:00,
2013-08-21 10:33:00,60.5,50.7,30.10,ENE,62,3.5,3.5,70,2.97,RA,,40.31,650.1,WeatherDisplay:10.37,2013-08-21 08:33:00,
2013-08-21 10:34:00,60.5,50.7,30.10,NE,35,3.5,3.5,70,2.97,RA,,40.31,650.1,WeatherDisplay:10.37,2013-08-21 08:34:00,
2013-08-21 10:36:00,60.5,50.7,30.10,NE,35,0.0,0.0,70,2.26,FEW,,40.31,650.1,WeatherDisplay:10.37,2013-08-21 08:36:00,
2013-08-21 10:37:00,60.5,50.7,30.11,NE,35,0.0,0.0,70,2.26,FEW,,40.31,650.1,WeatherDisplay:10.37,2013-08-21 08:37:00,
2013-08-21 10:38:00,60.5,50.7,30.11,East,88,0.0,0.0,70,2.26,FEW,,40.31,650.1,WeatherDisplay:10.37,2013-08-21 08:38:00,
2013-08-21 10:41:00,61.0,50.4,30.10,WNW,284,4.6,0.0,68,2.26,FEW,,40.31,677.6,WeatherDisplay:10.37,2013-08-21 08:41:00,
2013-08-21 10:42:00,61.2,50.6,30.10,North,3,3.0,3.0,68,2.26,FEW,,40.31,677.6,WeatherDisplay:10.37,2013-08-21 08:42:00,
2013-08-21 10:43:00,61.2,50.6,30.10,North,3,3.5,0.0,68,1.78,FEW,,40.31,677.6,WeatherDisplay:10.37,2013-08-21 08:43:00,
2013-08-21 10:46:00,61.3,50.6,30.10,SW,224,7.0,7.0,68,1.78,FEW,,40.31,677.6,WeatherDisplay:10.37,2013-08-21 08:46:00,
2013-08-21 10:47:00,61.3,50.6,30.10,West,278,6.9,0.0,68,1.78,FEW,,40.31,677.6,WeatherDisplay:10.37,2013-08-21 08:47:00,
2013-08-21 10:48:00,61.3,49.8,30.10,South,169,2.0,2.0,66,1.78,FEW,,40.31,677.6,WeatherDisplay:10.37,2013-08-21 08:48:00,
2013-08-21 10:51:00,61.3,49.8,30.10,WNW,289,1.2,1.2,66,1.78,FEW,,40.31,677.6,WeatherDisplay:10.37,2013-08-21 08:51:00,
2013-08-21 10:52:00,61.3,49.8,30.10,WNW,289,1.2,1.2,66,1.78,FEW,,40.31,677.6,WeatherDisplay:10.37,2013-08-21 08:52:00,
2013-08-21 10:53:00,61.3,49.8,30.10,ENE,64,2.0,2.0,66,1.78,FEW,,40.31,677.6,WeatherDisplay:10.37,2013-08-21 08:53:00,
2013-08-21 10:54:00,61.3,49.8,30.10,ENE,64,2.3,2.3,66,1.78,FEW,,40.31,677.6,WeatherDisplay:10.37,2013-08-21 08:54:00,
2013-08-21 10:56:00,61.3,49.8,30.10,SW,233,3.5,3.5,66,1.78,FEW,,40.31,677.6,WeatherDisplay:10.37,2013-08-21 08:56:00,
2013-08-21 10:57:00,61.3,49.8,30.10,SW,233,3.5,3.5,66,1.78,FEW,,40.31,677.6,WeatherDisplay:10.37,2013-08-21 08:57:00,
2013-08-21 10:58:00,61.3,49.8,30.10,West,274,3.5,3.5,66,1.78,FEW,,40.31,677.6,WeatherDisplay:10.37,2013-08-21 08:58:00,
2013-08-21 10:59:00,61.3,49.8,30.10,West,274,0.0,0.0,66,1.78,FEW,,40.31,677.6,WeatherDisplay:10.37,2013-08-21 08:59:00,
2013-08-21 11:01:00,62.0,50.5,30.10,ESE,103,1.2,1.2,66,1.78,FEW,,40.31,728.2,WeatherDisplay:10.37,2013-08-21 09:01:00,
2013-08-21 11:02:00,62.0,50.5,30.10,ESE,103,2.3,2.3,66,1.78,FEW,,40.31,728.2,WeatherDisplay:10.37,2013-08-21 09:02:00,
2013-08-21 11:03:00,62.1,50.6,30.10,SSW,212,2.3,2.3,66,1.78,FEW,,40.31,728.2,WeatherDisplay:10.37,2013-08-21 09:03:00,
2013-08-21 11:04:00,62.1,50.6,30.10,SSW,212,2.3,2.3,66,1.78,FEW,,40.31,728.2,WeatherDisplay:10.37,2013-08-21 09:04:00,
2013-08-21 11:07:00,62.6,51.1,30.10,WNW,282,4.6,4.6,66,1.78,FEW,,40.31,728.2,WeatherDisplay:10.37,2013-08-21 09:07:00,
2013-08-21 11:08:00,62.6,51.1,30.10,East,85,4.6,4.6,66,1.78,FEW,,40.31,728.2,WeatherDisplay:10.37,2013-08-21 09:08:00,
2013-08-21 11:09:00,62.6,51.1,30.10,East,85,2.3,0.0,66,1.78,FEW,,40.31,728.2,WeatherDisplay:10.37,2013-08-21 09:09:00,
2013-08-21 11:12:00,62.4,50.9,30.10,ENE,76,4.6,4.6,66,1.78,FEW,,40.31,749.1,WeatherDisplay:10.37,2013-08-21 09:12:00,
2013-08-21 11:13:00,62.4,50.9,30.10,ENE,76,2.3,2.3,66,1.78,FEW,,40.31,749.1,WeatherDisplay:10.37,2013-08-21 09:13:00,
2013-08-21 11:15:00,62.4,50.9,30.10,ENE,76,2.3,2.3,66,1.78,FEW,,40.31,749.1,WeatherDisplay:10.37,2013-08-21 09:15:00,
2013-08-21 11:17:00,62.4,50.9,30.10,ENE,76,2.3,2.3,66,1.78,FEW,,40.31,749.1,WeatherDisplay:10.37,2013-08-21 09:17:00,
2013-08-21 11:19:00,62.1,50.6,30.10,SE,140,5.0,5.0,66,2.22,RA,,40.75,749.1,WeatherDisplay:10.37,2013-08-21 09:19:00,
2013-08-21 11:20:00,62.1,50.6,30.10,SE,140,5.0,5.0,66,2.22,RA,,40.75,749.1,WeatherDisplay:10.37,2013-08-21 09:20:00,
2013-08-21 11:22:00,62.1,50.6,30.10,North,1,4.6,4.7,66,1.43,FEW,,40.75,749.1,WeatherDisplay:10.37,2013-08-21 09:22:00,
2013-08-21 11:23:00,62.1,50.6,30.10,North,1,4.6,4.6,66,1.43,FEW,,40.75,749.1,WeatherDisplay:10.37,2013-08-21 09:23:00,
2013-08-21 11:25:00,62.1,50.6,30.10,NW,304,2.3,2.3,66,1.43,FEW,,40.75,749.1,WeatherDisplay:10.37,2013-08-21 09:25:00,
2013-08-21 11:26:00,62.1,50.6,30.10,North,0,3.5,3.5,66,1.43,FEW,,40.75,749.1,WeatherDisplay:10.37,2013-08-21 09:26:00,
2013-08-21 11:27:00,62.6,51.1,30.10,SSW,213,3.5,3.5,66,1.43,FEW,,40.75,749.1,WeatherDisplay:10.37,2013-08-21 09:27:00,
2013-08-21 11:28:00,62.6,51.1,30.10,SSW,213,1.2,1.2,66,1.43,FEW,,40.75,749.1,WeatherDisplay:10.37,2013-08-21 09:28:00,
2013-08-21 11:30:00,62.7,51.2,30.10,North,11,1.2,1.2,66,0.99,FEW,,40.75,749.1,WeatherDisplay:10.37,2013-08-21 09:30:00,
2013-08-21 11:31:00,62.7,51.2,30.10,North,11,0.0,0.0,66,0.44,FEW,,40.75,749.1,WeatherDisplay:10.37,2013-08-21 09:31:00,
2013-08-21 11:33:00,62.7,51.2,30.10,NNE,24,0.0,0.0,66,0.44,FEW,,40.75,749.1,WeatherDisplay:10.37,2013-08-21 09:33:00,
2013-08-21 11:35:00,63.4,51.8,30.10,SSE,150,3.5,3.5,66,0.44,FEW,,40.75,749.1,WeatherDisplay:10.37,2013-08-21 09:35:00,
2013-08-21 11:36:00,63.4,51.8,30.10,SSE,152,3.5,3.5,66,0.44,FEW,,40.75,749.1,WeatherDisplay:10.37,2013-08-21 09:36:00,
2013-08-21 11:38:00,63.4,51.8,30.10,SSE,167,0.0,0.0,66,1.23,RA,,41.54,749.1,WeatherDisplay:10.37,2013-08-21 09:38:00,
2013-08-21 11:41:00,64.0,52.4,30.09,SSW,193,0.0,0.0,66,1.23,FEW,,41.54,749.1,WeatherDisplay:10.37,2013-08-21 09:41:00,
2013-08-21 11:43:00,64.3,50.1,30.09,WNW,296,5.8,5.8,60,1.23,FEW,,41.86,799.7,WeatherDisplay:10.37,2013-08-21 09:43:00,
2013-08-21 11:44:00,64.3,50.1,30.09,ENE,62,4.0,4.0,60,1.55,RA,,42.10,799.7,WeatherDisplay:10.37,2013-08-21 09:44:00,
2013-08-21 11:46:00,64.5,50.3,30.09,ENE,69,3.5,3.7,60,1.79,RA,,42.10,799.7,WeatherDisplay:10.37,2013-08-21 09:46:00,
2013-08-21 11:47:00,64.5,50.3,30.09,ENE,69,3.5,3.5,60,1.79,RA,,42.10,799.7,WeatherDisplay:10.37,2013-08-21 09:47:00,
2013-08-21 11:49:00,64.5,50.3,30.09,SE,137,3.5,3.5,60,1.79,FEW,,42.10,799.7,WeatherDisplay:10.37,2013-08-21 09:49:00,
2013-08-21 11:50:00,64.5,50.3,30.09,SE,137,3.5,3.5,60,1.79,FEW,,42.10,799.7,WeatherDisplay:10.37,2013-08-21 09:50:00,
2013-08-21 11:51:00,64.5,50.3,30.09,SE,137,2.3,2.3,60,2.07,RA,,42.38,799.7,WeatherDisplay:10.37,2013-08-21 09:51:00,
2013-08-21 11:52:00,64.5,50.3,30.09,SE,137,0.0,0.0,60,2.07,RA,,42.38,799.7,WeatherDisplay:10.37,2013-08-21 09:52:00,
2013-08-21 11:54:00,64.7,50.5,30.09,SSW,200,2.3,0.0,60,2.07,FEW,,42.38,799.7,WeatherDisplay:10.37,2013-08-21 09:54:00,
2013-08-21 11:55:00,64.8,50.6,30.09,NE,35,7.0,7.0,60,2.07,FEW,,42.38,799.7,WeatherDisplay:10.37,2013-08-21 09:55:00,
2013-08-21 11:56:00,64.8,50.6,30.09,West,275,6.9,6.9,60,2.07,FEW,,42.38,799.7,WeatherDisplay:10.37,2013-08-21 09:56:00,
2013-08-21 11:57:00,64.8,50.6,30.09,West,275,1.2,1.2,60,2.07,FEW,,42.38,799.7,WeatherDisplay:10.37,2013-08-21 09:57:00,
2013-08-21 11:59:00,64.8,50.6,30.09,SSW,205,2.3,2.3,60,2.07,FEW,,42.38,799.7,WeatherDisplay:10.37,2013-08-21 09:59:00,
2013-08-21 12:01:00,64.8,51.0,30.09,NNW,328,4.6,4.6,61,2.07,FEW,,42.38,799.7,WeatherDisplay:10.37,2013-08-21 10:01:00,
2013-08-21 12:02:00,64.8,51.0,30.09,NW,326,4.6,4.6,61,2.07,FEW,,42.38,799.7,WeatherDisplay:10.37,2013-08-21 10:02:00,
2013-08-21 12:05:00,64.8,51.0,30.09,SSW,192,5.8,5.8,61,2.78,RA,,43.09,799.7,WeatherDisplay:10.37,2013-08-21 10:05:00,
2013-08-21 12:06:00,64.8,51.0,30.09,SE,126,3.5,3.5,61,3.14,RA,,43.45,799.7,WeatherDisplay:10.37,2013-08-21 10:06:00,
2013-08-21 12:07:00,64.8,51.0,30.09,SE,126,2.3,2.3,61,3.14,RA,,43.45,799.7,WeatherDisplay:10.37,2013-08-21 10:07:00,
2013-08-21 12:10:00,65.2,51.4,30.09,NNW,344,5.8,5.8,61,3.73,RA,,44.04,799.7,WeatherDisplay:10.37,2013-08-21 10:10:00,
2013-08-21 12:11:00,65.2,51.4,30.09,SW,226,1.2,1.2,61,4.29,RA,,44.60,799.7,WeatherDisplay:10.37,2013-08-21 10:11:00,
2013-08-21 12:12:00,65.2,51.4,30.09,NE,40,0.0,0.0,61,4.29,RA,,44.95,799.7,WeatherDisplay:10.37,2013-08-21 10:12:00,
2013-08-21 12:13:00,65.2,51.4,30.09,NE,40,0.0,0.0,61,4.29,RA,,44.95,799.7,WeatherDisplay:10.37,2013-08-21 10:13:00,
2013-08-21 12:15:00,65.3,51.5,30.09,North,0,3.5,3.5,61,4.64,RA,,44.95,799.7,WeatherDisplay:10.37,2013-08-21 10:15:00,
2013-08-21 12:16:00,65.5,51.7,30.09,ESE,112,2.3,2.3,61,5.36,RA,,45.95,851.4,WeatherDisplay:10.37,2013-08-21 10:16:00,
2013-08-21 12:17:00,65.5,51.7,30.09,ESE,106,2.3,2.3,61,5.64,RA,,45.95,851.4,WeatherDisplay:10.37,2013-08-21 10:17:00,
2013-08-21 12:18:00,65.5,51.7,30.09,ESE,106,2.3,2.3,61,5.64,RA,,45.95,851.4,WeatherDisplay:10.37,2013-08-21 10:18:00,
2013-08-21 12:20:00,65.8,52.0,30.09,NNW,347,5.0,5.0,61,5.71,RA,,46.86,848.1,WeatherDisplay:10.37,2013-08-21 10:20:00,
2013-08-21 12:22:00,65.6,51.8,30.09,ESE,103,6.9,6.9,61,6.51,RA,,47.26,853.6,WeatherDisplay:10.37,2013-08-21 10:22:00,
2013-08-21 12:23:00,65.6,51.8,30.09,ESE,103,4.6,4.6,61,6.51,RA,,47.26,853.6,WeatherDisplay:10.37,2013-08-21 10:23:00,
2013-08-21 12:26:00,65.6,50.0,30.09,SW,227,0.0,0.0,57,7.18,RA,,47.93,853.6,WeatherDisplay:10.37,2013-08-21 10:26:00,
2013-08-21 12:27:00,65.6,50.0,30.09,SSE,167,2.3,2.3,57,7.70,RA,,48.45,861.3,WeatherDisplay:10.37,2013-08-21 10:27:00,
2013-08-21 12:28:00,65.6,50.0,30.09,South,171,2.3,2.3,57,7.70,RA,,48.45,861.3,WeatherDisplay:10.37,2013-08-21 10:28:00,
2013-08-21 12:31:00,66.0,50.3,30.09,NW,326,3.5,3.5,57,8.65,RA,,49.40,861.3,WeatherDisplay:10.37,2013-08-21 10:31:00,
2013-08-21 12:33:00,66.1,49.9,30.09,NW,325,1.2,0.0,56,8.81,RA,,49.56,873.4,WeatherDisplay:10.37,2013-08-21 10:33:00,
2013-08-21 12:34:00,66.3,50.1,30.09,NW,308,0.0,0.0,56,9.28,RA,,50.03,873.4,WeatherDisplay:10.37,2013-08-21 10:34:00,
2013-08-21 12:36:00,66.8,52.0,30.08,SSW,193,1.2,1.2,59,9.72,RA,,50.71,873.4,WeatherDisplay:10.37,2013-08-21 10:36:00,
2013-08-21 12:39:00,66.8,52.0,30.08,South,176,0.0,0.0,59,9.17,RA,,50.71,873.4,WeatherDisplay:10.37,2013-08-21 10:39:00,
2013-08-21 12:42:00,67.1,52.3,30.09,WNW,291,3.5,3.5,59,9.17,FEW,,50.71,873.4,WeatherDisplay:10.37,2013-08-21 10:42:00,
2013-08-21 12:44:00,67.1,52.3,30.09,SE,131,1.2,0.0,59,9.41,RA,,50.95,873.4,WeatherDisplay:10.37,2013-08-21 10:44:00,
2013-08-21 12:47:00,67.1,50.4,30.09,SSE,147,1.2,1.2,55,9.21,FEW,,51.31,873.4,WeatherDisplay:10.37,2013-08-21 10:47:00,
2013-08-21 12:49:00,67.4,50.7,30.09,SSW,210,5.0,5.0,55,9.21,FEW,,51.31,881.1,WeatherDisplay:10.37,2013-08-21 10:49:00,
2013-08-21 12:50:00,67.4,50.7,30.09,South,175,5.8,5.8,55,9.21,FEW,,51.31,881.1,WeatherDisplay:10.37,2013-08-21 10:50:00,
2013-08-21 12:53:00,67.6,50.9,30.09,SE,131,5.0,5.0,55,9.52,RA,,51.90,881.1,WeatherDisplay:10.37,2013-08-21 10:53:00,
2013-08-21 12:54:00,67.6,50.9,30.09,SSE,154,4.6,4.6,55,9.52,RA,,52.50,881.1,WeatherDisplay:10.37,2013-08-21 10:54:00,
2013-08-21 12:55:00,67.6,50.9,30.09,SSE,160,4.6,4.6,55,9.52,RA,,52.50,881.1,WeatherDisplay:10.37,2013-08-21 10:55:00,
2013-08-21 12:58:00,67.6,50.4,30.09,NW,309,3.5,3.5,54,10.12,FEW,,52.50,894.3,WeatherDisplay:10.37,2013-08-21 10:58:00,
2013-08-21 13:00:00,67.6,50.4,30.09,SSE,160,0.0,0.0,54,10.12,FEW,,52.50,894.3,WeatherDisplay:10.37,2013-08-21 11:00:00,
2013-08-21 13:03:00,67.4,51.2,30.09,SSW,209,1.2,0.0,56,10.44,RA,,53.05,894.3,WeatherDisplay:10.37,2013-08-21 11:03:00,
2013-08-21 13:05:00,67.6,51.3,30.09,SW,226,0.0,0.0,56,10.20,RA,,53.05,894.3,WeatherDisplay:10.37,2013-08-21 11:05:00,
2013-08-21 13:06:00,67.6,51.3,30.09,SW,226,0.0,0.0,56,9.60,FEW,,53.05,894.3,WeatherDisplay:10.37,2013-08-21 11:06:00,
2013-08-21 13:08:00,68.1,51.8,30.09,NNW,344,2.3,2.3,56,9.29,FEW,,53.05,899.8,WeatherDisplay:10.37,2013-08-21 11:08:00,
2013-08-21 13:10:00,68.3,51.0,30.08,NE,54,3.5,3.5,54,9.01,FEW,,53.05,902.0,WeatherDisplay:10.37,2013-08-21 11:10:00,
2013-08-21 13:11:00,68.3,51.0,30.08,NNE,13,3.5,0.0,54,9.01,FEW,,53.05,902.0,WeatherDisplay:10.37,2013-08-21 11:11:00,
2013-08-21 13:13:00,68.4,52.1,30.08,North,1,5.8,5.8,56,8.10,FEW,,53.05,905.3,WeatherDisplay:10.37,2013-08-21 11:13:00,
2013-08-21 13:15:00,68.4,52.1,30.08,WSW,253,3.5,0.0,56,8.10,FEW,,53.05,905.3,WeatherDisplay:10.37,2013-08-21 11:15:00,
2013-08-21 13:16:00,68.4,52.1,30.08,WSW,253,0.0,0.0,56,7.38,FEW,,53.05,905.3,WeatherDisplay:10.37,2013-08-21 11:16:00,
2013-08-21 13:18:00,68.3,51.5,30.08,NNW,343,4.6,4.6,55,7.10,FEW,,53.05,905.3,WeatherDisplay:10.37,2013-08-21 11:18:00,
2013-08-21 13:20:00,68.1,50.3,30.08,SW,233,10.4,10.4,53,6.59,FEW,,53.05,913.0,WeatherDisplay:10.37,2013-08-21 11:20:00,
2013-08-21 13:21:00,68.1,50.3,30.08,WSW,237,5.0,5.0,53,6.19,FEW,,53.05,913.0,WeatherDisplay:10.37,2013-08-21 11:21:00,
2013-08-21 13:24:00,67.9,50.6,30.07,WSW,250,5.8,5.8,54,5.48,FEW,,53.05,911.9,WeatherDisplay:10.37,2013-08-21 11:24:00,
2013-08-21 13:25:00,67.9,50.6,30.07,South,176,5.8,5.8,54,5.12,FEW,,53.05,911.9,WeatherDisplay:10.37,2013-08-21 11:25:00,
2013-08-21 13:26:00,68.3,51.0,30.07,South,176,5.8,5.8,54,5.12,FEW,,53.05,911.9,WeatherDisplay:10.37,2013-08-21 11:26:00,
2013-08-21 13:27:00,68.3,51.0,30.08,South,191,4.6,4.6,54,4.60,FEW,,53.05,911.9,WeatherDisplay:10.37,2013-08-21 11:27:00,
2013-08-21 13:29:00,68.4,51.6,30.07,WSW,257,1.2,0.0,55,4.60,FEW,,53.05,911.9,WeatherDisplay:10.37,2013-08-21 11:29:00,
2013-08-21 13:30:00,68.8,52.0,30.07,WSW,244,1.0,1.4,55,4.05,FEW,,53.05,911.9,WeatherDisplay:10.37,2013-08-21 11:30:00,
2013-08-21 13:31:00,68.8,52.0,30.07,WSW,237,4.6,4.6,55,3.65,FEW,,53.05,911.9,WeatherDisplay:10.37,2013-08-21 11:31:00,
2013-08-21 13:32:00,68.8,52.0,30.07,WSW,248,5.8,5.8,55,3.49,FEW,,53.05,911.9,WeatherDisplay:10.37,2013-08-21 11:32:00,
2013-08-21 13:34:00,68.8,52.0,30.07,SSE,154,0.0,0.0,55,3.02,FEW,,53.05,913.0,WeatherDisplay:10.37,2013-08-21 11:34:00,
2013-08-21 13:35:00,68.9,51.1,30.07,SW,216,4.6,4.6,53,3.02,FEW,,53.05,913.0,WeatherDisplay:10.37,2013-08-21 11:35:00,
2013-08-21 13:37:00,68.9,52.1,30.07,SSW,205,3.5,3.5,55,2.58,FEW,,53.05,913.0,WeatherDisplay:10.37,2013-08-21 11:37:00,
2013-08-21 13:39:00,68.8,52.0,30.07,NNE,16,8.1,8.1,55,2.34,FEW,,53.05,911.9,WeatherDisplay:10.37,2013-08-21 11:39:00,
2013-08-21 13:40:00,68.9,52.1,30.07,NNE,20,4.6,0.0,55,2.34,FEW,,53.05,911.9,WeatherDisplay:10.37,2013-08-21 11:40:00,
2013-08-21 13:42:00,69.1,52.2,30.07,NNE,31,0.0,0.0,55,2.34,FEW,,53.05,909.7,WeatherDisplay:10.37,2013-08-21 11:42:00,
2013-08-21 13:43:00,69.1,52.2,30.07,NNE,31,0.0,0.0,55,2.34,FEW,,53.05,911.9,WeatherDisplay:10.37,2013-08-21 11:43:00,
2013-08-21 13:44:00,69.3,52.4,30.07,SSE,164,3.5,3.5,55,1.74,FEW,,53.05,911.9,WeatherDisplay:10.37,2013-08-21 11:44:00,
2013-08-21 13:46:00,69.3,51.4,30.07,NW,318,5.8,5.8,53,1.74,FEW,,53.05,911.9,WeatherDisplay:10.37,2013-08-21 11:46:00,
2013-08-21 13:47:00,69.3,51.4,30.07,South,171,2.3,2.3,53,1.74,FEW,,53.05,911.9,WeatherDisplay:10.37,2013-08-21 11:47:00,
2013-08-21 13:48:00,69.3,51.4,30.07,South,174,3.5,3.5,53,1.74,FEW,,53.05,911.9,WeatherDisplay:10.37,2013-08-21 11:48:00,
2013-08-21 13:49:00,69.1,51.2,30.07,South,189,3.5,3.5,53,1.74,FEW,,53.05,907.5,WeatherDisplay:10.37,2013-08-21 11:49:00,
2013-08-21 13:51:00,69.3,51.4,30.07,East,85,3.5,3.5,53,1.74,FEW,,53.05,913.0,WeatherDisplay:10.37,2013-08-21 11:51:00,
2013-08-21 13:52:00,69.3,51.4,30.07,SSW,196,6.0,6.0,53,1.15,FEW,,53.05,913.0,WeatherDisplay:10.37,2013-08-21 11:52:00,
2013-08-21 13:53:00,69.1,51.2,30.07,WSW,246,6.0,6.0,53,1.15,FEW,,53.05,913.0,WeatherDisplay:10.37,2013-08-21 11:53:00,
2013-08-21 13:54:00,69.1,51.2,30.07,West,277,6.9,6.9,53,1.15,FEW,,53.05,913.0,WeatherDisplay:10.37,2013-08-21 11:54:00,
2013-08-21 13:55:00,69.1,51.2,30.07,WSW,239,6.9,6.9,53,1.15,FEW,,53.05,907.5,WeatherDisplay:10.37,2013-08-21 11:55:00,
2013-08-21 13:56:00,69.1,51.2,30.07,WSW,237,2.3,2.3,53,0.55,FEW,,53.05,907.5,WeatherDisplay:10.37,2013-08-21 11:56:00,
2013-08-21 13:57:00,69.1,51.2,30.07,WNW,295,2.3,2.3,53,0.55,FEW,,53.05,907.5,WeatherDisplay:10.37,2013-08-21 11:57:00,
2013-08-21 13:58:00,69.4,51.5,30.07,South,171,2.3,2.4,53,0.55,FEW,,53.05,907.5,WeatherDisplay:10.37,2013-08-21 11:58:00,
2013-08-21 13:59:00,69.4,51.5,30.07,South,176,4.6,4.6,53,0.55,FEW,,53.05,907.5,WeatherDisplay:10.37,2013-08-21 11:59:00,
2013-08-21 14:00:00,69.4,51.5,30.07,SSE,160,3.5,3.5,53,0.55,FEW,,53.05,907.5,WeatherDisplay:10.37,2013-08-21 12:00:00,
2013-08-21 14:01:00,69.4,51.5,30.07,SSE,160,2.3,2.3,53,0.55,FEW,,53.05,907.5,WeatherDisplay:10.37,2013-08-21 12:01:00,
2013-08-21 14:02:00,69.4,51.5,30.07,WSW,251,3.5,3.5,53,0.55,FEW,,53.05,907.5,WeatherDisplay:10.37,2013-08-21 12:02:00,
2013-08-21 14:04:00,69.4,51.5,30.07,West,271,3.5,3.5,53,0.00,FEW,,53.05,907.5,WeatherDisplay:10.37,2013-08-21 12:04:00,
2013-08-21 14:05:00,69.4,51.5,30.07,West,272,3.5,0.0,53,0.00,FEW,,53.05,907.5,WeatherDisplay:10.37,2013-08-21 12:05:00,
2013-08-21 14:06:00,69.4,51.5,30.07,West,272,0.0,0.0,53,0.00,FEW,,53.05,907.5,WeatherDisplay:10.37,2013-08-21 12:06:00,
2013-08-21 14:08:00,70.3,52.4,30.07,SW,234,3.0,3.0,53,0.00,FEW,,53.05,907.5,WeatherDisplay:10.37,2013-08-21 12:08:00,
2013-08-21 14:09:00,70.3,52.4,30.07,SW,234,3.5,3.5,53,0.00,FEW,,53.05,907.5,WeatherDisplay:10.37,2013-08-21 12:09:00,
2013-08-21 14:10:00,70.3,52.4,30.07,SW,227,3.5,3.5,53,0.00,FEW,,53.05,905.3,WeatherDisplay:10.37,2013-08-21 12:10:00,
2013-08-21 14:12:00,70.3,52.4,30.07,SW,227,2.3,2.3,53,0.00,FEW,,53.05,905.3,WeatherDisplay:10.37,2013-08-21 12:12:00,
2013-08-21 14:14:00,70.3,52.4,30.07,East,95,3.5,3.5,53,0.00,FEW,,53.05,905.3,WeatherDisplay:10.37,2013-08-21 12:14:00,
2013-08-21 14:15:00,70.1,52.2,30.07,SE,137,2.3,2.3,53,0.00,FEW,,53.05,905.3,WeatherDisplay:10.37,2013-08-21 12:15:00,
2013-08-21 14:16:00,70.1,52.2,30.07,SE,137,0.0,0.0,53,0.00,FEW,,53.05,905.3,WeatherDisplay:10.37,2013-08-21 12:16:00,
2013-08-21 14:17:00,70.1,52.2,30.07,SE,137,0.0,0.0,53,0.00,FEW,,53.05,905.3,WeatherDisplay:10.37,2013-08-21 12:17:00,
2013-08-21 14:19:00,70.1,52.2,30.07,SSW,192,5.0,5.0,53,0.00,FEW,,53.05,905.3,WeatherDisplay:10.37,2013-08-21 12:19:00,
2013-08-21 14:20:00,70.1,52.2,30.07,WSW,239,4.6,4.9,53,0.00,FEW,,53.05,905.3,WeatherDisplay:10.37,2013-08-21 12:20:00,
2013-08-21 14:21:00,70.1,52.2,30.07,WSW,239,4.6,4.6,53,0.00,FEW,,53.05,905.3,WeatherDisplay:10.37,2013-08-21 12:21:00,
2013-08-21 14:22:00,70.1,52.2,30.07,WSW,239,4.0,4.0,53,0.00,FEW,,53.05,905.3,WeatherDisplay:10.37,2013-08-21 12:22:00,
2013-08-21 14:25:00,70.1,52.2,30.07,SW,229,4.0,4.0,53,0.00,FEW,,53.05,905.3,WeatherDisplay:10.37,2013-08-21 12:25:00,
2013-08-21 14:26:00,70.1,52.2,30.07,SW,229,4.0,4.0,53,0.00,FEW,,53.05,905.3,WeatherDisplay:10.37,2013-08-21 12:26:00,
2013-08-21 14:27:00,70.1,52.2,30.07,SW,229,4.0,4.0,53,0.00,FEW,,53.05,905.3,WeatherDisplay:10.37,2013-08-21 12:27:00,
2013-08-21 14:30:00,70.1,52.2,30.07,South,176,0.0,0.0,53,0.00,FEW,,53.05,905.3,WeatherDisplay:10.37,2013-08-21 12:30:00,
2013-08-21 14:31:00,70.1,52.2,30.07,South,176,0.0,0.0,53,0.00,FEW,,53.05,905.3,WeatherDisplay:10.37,2013-08-21 12:31:00,
2013-08-21 14:32:00,70.1,52.2,30.07,South,176,0.0,0.0,53,0.00,FEW,,53.05,905.3,WeatherDisplay:10.37,2013-08-21 12:32:00,
2013-08-21 14:36:00,70.3,52.4,30.07,SSW,203,1.2,1.2,53,0.00,FEW,,53.05,882.2,WeatherDisplay:10.37,2013-08-21 12:36:00,
2013-08-21 14:37:00,70.3,52.4,30.07,SSW,203,1.2,1.2,53,0.00,FEW,,53.05,882.2,WeatherDisplay:10.37,2013-08-21 12:37:00,
2013-08-21 14:41:00,70.3,52.4,30.07,SSW,203,1.2,1.2,53,0.00,FEW,,53.05,882.2,WeatherDisplay:10.37,2013-08-21 12:41:00,
2013-08-21 14:42:00,70.3,52.4,30.07,SSW,203,1.2,1.2,53,0.00,FEW,,53.05,882.2,WeatherDisplay:10.37,2013-08-21 12:42:00,
2013-08-21 14:43:00,70.3,52.4,30.07,SSW,203,1.2,1.2,53,0.00,FEW,,53.05,882.2,WeatherDisplay:10.37,2013-08-21 12:43:00,
2013-08-21 14:46:00,70.3,52.4,30.11,North,9,0.0,0.0,53,0.00,FEW,,53.05,0.0,WeatherDisplay:10.37,2013-08-21 12:46:00,
2013-08-21 14:47:00,70.3,52.4,30.11,North,0,0.0,0.0,53,0.00,FEW,,53.05,0.0,WeatherDisplay:10.37,2013-08-21 12:47:00,
2013-08-21 14:48:00,70.3,52.4,30.10,North,0,0.0,0.0,53,0.00,FEW,,53.05,0.0,WeatherDisplay:10.37,2013-08-21 12:48:00,
2013-08-21 14:52:00,70.3,52.4,30.11,North,0,0.0,0.0,53,0.00,FEW,,53.05,0.0,WeatherDisplay:10.37,2013-08-21 12:52:00,
2013-08-21 14:53:00,70.3,52.4,30.10,North,0,0.0,0.0,53,0.00,FEW,,53.05,0.0,WeatherDisplay:10.37,2013-08-21 12:53:00,
2013-08-21 14:55:00,70.3,52.4,30.10,North,0,0.0,0.0,53,0.00,FEW,,53.05,0.0,WeatherDisplay:10.37,2013-08-21 12:55:00,
2013-08-21 14:58:00,70.3,52.4,30.11,North,0,0.0,0.0,53,0.00,FEW,,53.05,0.0,WeatherDisplay:10.37,2013-08-21 12:58:00,
2013-08-21 15:00:00,70.3,52.4,30.10,North,0,0.0,0.0,53,0.00,FEW,,53.05,0.0,WeatherDisplay:10.37,2013-08-21 13:00:00,
2013-08-21 15:03:00,70.3,52.4,30.11,North,0,0.0,0.0,53,0.00,FEW,,53.05,0.0,WeatherDisplay:10.37,2013-08-21 13:03:00,
2013-08-21 15:04:00,70.3,52.4,30.10,North,0,0.0,0.0,53,0.00,FEW,,53.05,0.0,WeatherDisplay:10.37,2013-08-21 13:04:00,
2013-08-21 15:06:00,70.3,52.4,30.10,North,0,0.0,0.0,53,0.00,FEW,,53.05,0.0,WeatherDisplay:10.37,2013-08-21 13:06:00,
2013-08-21 15:08:00,70.3,52.4,30.10,North,0,0.0,0.0,53,0.00,FEW,,53.05,0.0,WeatherDisplay:10.37,2013-08-21 13:08:00,
2013-08-21 15:09:00,70.3,52.4,30.10,North,0,0.0,0.0,53,0.00,FEW,,53.05,0.0,WeatherDisplay:10.37,2013-08-21 13:09:00,
2013-08-21 15:11:00,70.3,52.4,30.10,North,0,0.0,0.0,53,0.00,FEW,,53.05,0.0,WeatherDisplay:10.37,2013-08-21 13:11:00,
2013-08-21 15:14:00,70.3,52.4,30.10,North,0,0.0,0.0,53,0.00,FEW,,53.05,0.0,WeatherDisplay:10.37,2013-08-21 13:14:00,
2013-08-21 15:16:00,70.3,52.4,30.10,North,0,0.0,0.0,53,0.00,FEW,,53.05,0.0,WeatherDisplay:10.37,2013-08-21 13:16:00,
2013-08-21 15:19:00,70.3,52.4,30.10,North,0,0.0,0.0,53,0.00,FEW,,53.05,0.0,WeatherDisplay:10.37,2013-08-21 13:19:00,
2013-08-21 15:20:00,70.3,52.4,30.10,North,0,0.0,0.0,53,0.00,FEW,,53.05,0.0,WeatherDisplay:10.37,2013-08-21 13:20:00,
2013-08-21 15:22:00,70.3,52.4,30.10,North,0,0.0,0.0,53,0.00,FEW,,53.05,0.0,WeatherDisplay:10.37,2013-08-21 13:22:00,
2013-08-21 15:24:00,70.3,52.4,30.10,North,0,0.0,0.0,53,0.00,FEW,,53.05,0.0,WeatherDisplay:10.37,2013-08-21 13:24:00,
2013-08-21 15:25:00,70.3,52.4,30.10,North,0,0.0,0.0,53,0.00,FEW,,53.05,0.0,WeatherDisplay:10.37,2013-08-21 13:25:00,
2013-08-21 15:28:00,70.3,52.4,30.10,North,0,0.0,0.0,53,0.00,FEW,,53.05,0.0,WeatherDisplay:10.37,2013-08-21 13:28:00,
2013-08-21 15:30:00,70.3,52.4,30.10,North,0,0.0,0.0,53,0.00,FEW,,53.05,0.0,WeatherDisplay:10.37,2013-08-21 13:30:00,
2013-08-21 15:31:00,70.3,52.4,30.10,North,0,0.0,0.0,53,0.00,FEW,,53.05,0.0,WeatherDisplay:10.37,2013-08-21 13:31:00,
2013-08-21 15:34:00,70.3,52.4,30.10,North,0,0.0,0.0,53,0.00,FEW,,53.05,0.0,WeatherDisplay:10.37,2013-08-21 13:34:00,
2013-08-21 15:35:00,70.3,52.4,30.10,SW,229,2.3,2.3,53,0.52,RA,,53.57,805.2,WeatherDisplay:10.37,2013-08-21 13:35:00,
2013-08-21 15:36:00,70.3,52.4,30.10,SSE,160,2.3,2.3,53,0.52,RA,,53.57,805.2,WeatherDisplay:10.37,2013-08-21 13:36:00,
2013-08-21 15:39:00,70.3,52.4,30.10,ESE,110,0.0,0.0,53,0.52,FEW,,53.57,805.2,WeatherDisplay:10.37,2013-08-21 13:39:00,
2013-08-21 15:40:00,72.7,54.6,30.09,SW,232,3.0,3.0,53,0.52,FEW,,53.57,805.2,WeatherDisplay:10.37,2013-08-21 13:40:00,
2013-08-21 15:41:00,72.7,47.6,30.05,SW,230,3.5,3.5,41,0.52,FEW,,53.57,805.2,WeatherDisplay:10.37,2013-08-21 13:41:00,
2013-08-21 15:42:00,72.7,47.6,30.05,South,191,2.3,2.3,41,0.52,FEW,,53.57,785.4,WeatherDisplay:10.37,2013-08-21 13:42:00,
2013-08-21 15:44:00,72.7,47.6,30.05,South,191,1.2,1.2,41,1.27,RA,,54.32,785.4,WeatherDisplay:10.37,2013-08-21 13:44:00,
2013-08-21 15:45:00,72.8,48.4,30.05,ENE,62,2.3,2.3,42,1.27,RA,,55.00,789.8,WeatherDisplay:10.37,2013-08-21 13:45:00,
2013-08-21 15:46:00,72.8,48.4,30.05,East,96,2.3,2.3,42,1.95,RA,,55.00,789.8,WeatherDisplay:10.37,2013-08-21 13:46:00,
2013-08-21 15:47:00,72.8,48.4,30.05,East,96,1.2,1.2,42,1.95,RA,,55.00,789.8,WeatherDisplay:10.37,2013-08-21 13:47:00,
2013-08-21 15:49:00,72.8,48.4,30.05,ENE,66,6.9,6.9,42,1.95,FEW,,55.00,789.8,WeatherDisplay:10.37,2013-08-21 13:49:00,
2013-08-21 15:51:00,72.8,48.4,30.05,SW,234,2.0,2.0,42,1.95,FEW,,55.00,789.8,WeatherDisplay:10.37,2013-08-21 13:51:00,
2013-08-21 15:52:00,72.8,48.4,30.05,SW,234,2.0,2.0,42,1.95,FEW,,55.00,789.8,WeatherDisplay:10.37,2013-08-21 13:52:00,
2013-08-21 15:53:00,72.8,48.4,30.05,SW,232,2.3,2.3,42,1.95,FEW,,55.00,789.8,WeatherDisplay:10.37,2013-08-21 13:53:00,
2013-08-21 15:54:00,72.8,48.4,30.05,SW,222,0.0,0.0,42,1.95,FEW,,55.00,789.8,WeatherDisplay:10.37,2013-08-21 13:54:00,
2013-08-21 15:56:00,72.7,48.3,30.05,NW,313,0.0,0.0,42,1.95,FEW,,55.00,789.8,WeatherDisplay:10.37,2013-08-21 13:56:00,
2013-08-21 15:57:00,72.7,48.3,30.05,SW,216,1.2,1.2,42,1.95,FEW,,55.00,789.8,WeatherDisplay:10.37,2013-08-21 13:57:00,
2013-08-21 15:59:00,72.8,47.7,30.05,WSW,248,4.6,4.6,41,1.95,FEW,,55.00,760.1,WeatherDisplay:10.37,2013-08-21 13:59:00,
2013-08-21 16:01:00,72.7,47.6,30.05,WSW,237,3.5,3.5,41,2.19,RA,,55.76,754.6,WeatherDisplay:10.37,2013-08-21 14:01:00,
2013-08-21 16:02:00,72.3,47.3,30.05,WSW,240,3.5,3.5,41,2.71,RA,,55.76,754.6,WeatherDisplay:10.37,2013-08-21 14:02:00,
2013-08-21 16:04:00,72.1,47.7,30.05,West,270,4.6,4.6,42,2.71,RA,,56.47,751.3,WeatherDisplay:10.37,2013-08-21 14:04:00,
2013-08-21 16:05:00,72.3,47.3,30.05,WNW,288,4.6,4.6,41,3.42,RA,,56.47,751.3,WeatherDisplay:10.37,2013-08-21 14:05:00,
2013-08-21 16:07:00,72.5,47.5,30.05,WSW,247,0.0,0.0,41,3.66,RA,,56.71,751.3,WeatherDisplay:10.37,2013-08-21 14:07:00,
2013-08-21 16:09:00,72.7,48.3,30.05,WSW,247,2.3,2.3,42,4.49,RA,,57.70,739.2,WeatherDisplay:10.37,2013-08-21 14:09:00,
2013-08-21 16:10:00,72.8,49.0,30.05,WSW,251,6.0,6.0,43,4.65,RA,,57.90,737.0,WeatherDisplay:10.37,2013-08-21 14:10:00,
2013-08-21 16:12:00,73.0,49.2,30.05,WSW,240,4.6,4.6,43,5.05,RA,,58.10,737.0,WeatherDisplay:10.37,2013-08-21 14:12:00,
2013-08-21 16:14:00,73.0,49.2,30.05,SE,127,3.0,3.0,43,5.05,RA,,58.10,737.0,WeatherDisplay:10.37,2013-08-21 14:14:00,
2013-08-21 16:15:00,73.0,49.2,30.05,SE,127,3.5,3.5,43,5.05,FEW,,58.10,737.0,WeatherDisplay:10.37,2013-08-21 14:15:00,
2013-08-21 16:16:00,73.5,49.0,30.05,SSE,147,3.5,3.5,42,5.05,FEW,,58.30,737.0,WeatherDisplay:10.37,2013-08-21 14:16:00,
2013-08-21 16:17:00,73.7,49.2,30.05,NE,42,5.0,5.0,42,5.25,RA,,58.30,737.0,WeatherDisplay:10.37,2013-08-21 14:17:00,
2013-08-21 16:18:00,73.7,49.2,30.05,NE,42,2.0,2.4,42,5.25,RA,,58.30,737.0,WeatherDisplay:10.37,2013-08-21 14:18:00,
2013-08-21 16:19:00,73.7,49.2,30.05,SSE,164,3.0,3.0,42,5.25,RA,,59.05,718.3,WeatherDisplay:10.37,2013-08-21 14:19:00,
2013-08-21 16:21:00,73.7,47.2,30.05,North,359,5.0,5.0,39,6.00,RA,,59.05,716.1,WeatherDisplay:10.37,2013-08-21 14:21:00,
2013-08-21 16:23:00,73.7,47.2,30.05,NNW,335,4.6,4.6,39,6.68,RA,,59.73,716.1,WeatherDisplay:10.37,2013-08-21 14:23:00,
2013-08-21 16:24:00,73.7,47.2,30.05,SW,229,5.0,5.0,39,6.68,RA,,59.73,708.4,WeatherDisplay:10.37,2013-08-21 14:24:00,
2013-08-21 16:26:00,73.7,47.2,30.05,SW,229,5.0,5.0,39,6.68,FEW,,59.73,708.4,WeatherDisplay:10.37,2013-08-21 14:26:00,
2013-08-21 16:28:00,73.7,47.2,30.04,SW,229,5.0,5.0,39,6.68,FEW,,59.73,708.4,WeatherDisplay:10.37,2013-08-21 14:28:00,
2013-08-21 16:29:00,73.7,47.2,30.04,SW,229,4.6,5.0,39,6.68,FEW,,59.73,708.4,WeatherDisplay:10.37,2013-08-21 14:29:00,
2013-08-21 16:30:00,73.7,47.2,30.04,SW,229,5.0,5.0,39,6.68,FEW,,59.73,708.4,WeatherDisplay:10.37,2013-08-21 14:30:00,
2013-08-21 16:31:00,73.3,46.8,30.05,SW,229,4.6,4.6,39,7.47,RA,,60.52,708.4,WeatherDisplay:10.37,2013-08-21 14:31:00,
2013-08-21 16:33:00,73.3,46.8,30.05,SSW,192,3.5,3.5,39,7.47,RA,,60.52,708.4,WeatherDisplay:10.37,2013-08-21 14:33:00,
2013-08-21 16:35:00,73.2,46.8,30.05,West,260,7.0,7.0,39,6.95,FEW,,60.52,679.8,WeatherDisplay:10.37,2013-08-21 14:35:00,
2013-08-21 16:36:00,73.2,46.8,30.05,WSW,257,6.9,6.9,39,6.95,FEW,,60.52,679.8,WeatherDisplay:10.37,2013-08-21 14:36:00,
2013-08-21 16:38:00,73.2,46.1,30.04,West,267,1.0,1.0,38,6.95,FEW,,60.52,679.8,WeatherDisplay:10.37,2013-08-21 14:38:00,
2013-08-21 16:40:00,73.5,46.3,30.05,SSW,203,1.2,1.2,38,6.95,FEW,,60.52,679.8,WeatherDisplay:10.37,2013-08-21 14:40:00,
2013-08-21 16:41:00,73.5,46.3,30.05,SSW,202,2.0,2.0,38,6.95,FEW,,60.52,662.2,WeatherDisplay:10.37,2013-08-21 14:41:00,
2013-08-21 16:43:00,73.7,46.5,30.04,SSW,202,2.3,2.3,38,6.20,FEW,,60.52,662.2,WeatherDisplay:10.37,2013-08-21 14:43:00,
2013-08-21 16:45:00,73.5,46.3,30.04,West,281,2.3,2.3,38,6.20,FEW,,60.52,654.5,WeatherDisplay:10.37,2013-08-21 14:45:00,
2013-08-21 16:46:00,73.5,46.3,30.04,West,281,2.3,2.3,38,5.52,FEW,,60.52,654.5,WeatherDisplay:10.37,2013-08-21 14:46:00,
2013-08-21 16:47:00,73.5,46.3,30.04,West,280,2.3,2.3,38,5.52,FEW,,60.52,654.5,WeatherDisplay:10.37,2013-08-21 14:47:00,
2013-08-21 16:48:00,73.5,46.3,30.04,NNW,346,2.3,2.3,38,5.52,FEW,,60.52,654.5,WeatherDisplay:10.37,2013-08-21 14:48:00,
2013-08-21 16:50:00,73.5,46.3,30.04,WSW,250,5.0,5.0,38,6.04,RA,,61.04,654.5,WeatherDisplay:10.37,2013-08-21 14:50:00,
2013-08-21 16:52:00,73.3,47.5,30.04,WSW,240,4.6,4.6,40,6.04,RA,,61.04,654.5,WeatherDisplay:10.37,2013-08-21 14:52:00,
2013-08-21 16:54:00,73.3,47.5,30.04,WSW,254,3.5,3.5,40,6.04,FEW,,61.04,624.8,WeatherDisplay:10.37,2013-08-21 14:54:00,
2013-08-21 16:56:00,73.3,47.5,30.04,WSW,254,8.1,8.1,40,6.04,FEW,,61.04,624.8,WeatherDisplay:10.37,2013-08-21 14:56:00,
2013-08-21 16:57:00,73.2,47.4,30.04,West,277,5.8,5.8,40,6.55,RA,,61.55,624.8,WeatherDisplay:10.37,2013-08-21 14:57:00,
2013-08-21 16:58:00,73.0,47.2,30.04,West,277,4.6,0.0,40,6.55,RA,,61.55,624.8,WeatherDisplay:10.37,2013-08-21 14:58:00,
2013-08-21 16:59:00,73.0,47.2,30.04,West,277,0.0,0.0,40,6.55,RA,,61.55,624.8,WeatherDisplay:10.37,2013-08-21 14:59:00,
2013-08-21 17:01:00,73.0,47.2,30.04,SW,236,1.2,1.2,40,6.31,FEW,,61.55,624.8,WeatherDisplay:10.37,2013-08-21 15:01:00,
2013-08-21 17:02:00,73.7,45.8,30.04,SW,236,2.0,0.0,37,5.79,FEW,,61.55,599.5,WeatherDisplay:10.37,2013-08-21 15:02:00,
2013-08-21 17:03:00,73.7,45.8,30.04,SW,236,2.3,2.3,37,5.79,FEW,,61.55,599.5,WeatherDisplay:10.37,2013-08-21 15:03:00,
2013-08-21 17:04:00,73.7,45.8,30.04,SW,236,2.3,2.3,37,5.79,FEW,,61.55,599.5,WeatherDisplay:10.37,2013-08-21 15:04:00,
2013-08-21 17:07:00,73.7,45.8,30.04,WNW,285,0.0,0.0,37,4.84,FEW,,61.55,599.5,WeatherDisplay:10.37,2013-08-21 15:07:00,
2013-08-21 17:08:00,73.7,45.8,30.04,WNW,285,0.0,0.0,37,4.84,FEW,,61.55,599.5,WeatherDisplay:10.37,2013-08-21 15:08:00,
2013-08-21 17:09:00,74.4,46.4,30.04,WSW,256,0.0,0.0,37,4.01,FEW,,61.55,599.5,WeatherDisplay:10.37,2013-08-21 15:09:00,
2013-08-21 17:12:00,74.4,46.4,30.04,WSW,256,1.2,1.2,37,3.65,FEW,,61.55,599.5,WeatherDisplay:10.37,2013-08-21 15:12:00,
2013-08-21 17:13:00,74.4,46.4,30.04,WSW,256,1.2,1.2,37,3.45,FEW,,61.55,599.5,WeatherDisplay:10.37,2013-08-21 15:13:00,
2013-08-21 17:15:00,74.4,46.4,30.04,WSW,256,1.2,1.2,37,3.45,FEW,,61.55,599.5,WeatherDisplay:10.37,2013-08-21 15:15:00,
2013-08-21 17:17:00,74.4,46.4,30.04,West,277,1.2,1.2,37,3.25,FEW,,61.55,599.5,WeatherDisplay:10.37,2013-08-21 15:17:00,
2013-08-21 17:18:00,74.4,46.4,30.04,West,277,2.0,2.0,37,3.25,FEW,,61.55,599.5,WeatherDisplay:10.37,2013-08-21 15:18:00,
2013-08-21 17:20:00,74.7,46.7,30.04,West,265,2.3,2.3,37,2.50,FEW,,61.55,599.5,WeatherDisplay:10.37,2013-08-21 15:20:00,
2013-08-21 17:22:00,74.7,46.7,30.04,West,265,2.3,2.3,37,2.50,FEW,,61.55,599.5,WeatherDisplay:10.37,2013-08-21 15:22:00,
2013-08-21 17:23:00,74.7,46.7,30.04,SSE,165,5.0,5.0,37,1.82,FEW,,61.55,599.5,WeatherDisplay:10.37,2013-08-21 15:23:00,
2013-08-21 17:24:00,74.7,46.7,30.03,SSE,165,5.0,5.0,37,1.82,FEW,,61.55,599.5,WeatherDisplay:10.37,2013-08-21 15:24:00,
2013-08-21 17:25:00,74.7,46.7,30.03,SSE,165,4.6,5.0,37,1.82,FEW,,61.55,599.5,WeatherDisplay:10.37,2013-08-21 15:25:00,
2013-08-21 17:26:00,74.6,46.6,30.03,West,261,4.6,4.6,37,1.82,FEW,,61.55,599.5,WeatherDisplay:10.37,2013-08-21 15:26:00,
2013-08-21 17:27:00,74.6,46.6,30.03,WSW,258,2.3,2.3,37,1.82,FEW,,61.55,599.5,WeatherDisplay:10.37,2013-08-21 15:27:00,
2013-08-21 17:28:00,74.6,46.6,30.03,WSW,251,0.0,0.0,37,1.82,FEW,,61.55,599.5,WeatherDisplay:10.37,2013-08-21 15:28:00,
2013-08-21 17:29:00,74.6,46.6,30.04,WSW,251,0.0,0.0,37,1.82,FEW,,61.55,599.5,WeatherDisplay:10.37,2013-08-21 15:29:00,
2013-08-21 17:30:00,74.2,46.2,30.03,WSW,253,6.0,6.0,37,1.82,FEW,,61.55,599.5,WeatherDisplay:10.37,2013-08-21 15:30:00,
2013-08-21 17:31:00,74.2,46.2,30.04,WSW,253,6.0,6.0,37,1.03,FEW,,61.55,599.5,WeatherDisplay:10.37,2013-08-21 15:31:00,
2013-08-21 17:32:00,74.2,46.2,30.04,WSW,253,6.0,6.0,37,1.03,FEW,,61.55,599.5,WeatherDisplay:10.37,2013-08-21 15:32:00,
2013-08-21 17:34:00,74.0,46.1,30.04,NNE,18,3.5,3.5,37,1.03,FEW,,61.55,599.5,WeatherDisplay:10.37,2013-08-21 15:34:00,
2013-08-21 17:35:00,74.0,46.1,30.04,WSW,240,3.5,3.5,37,1.03,FEW,,61.55,599.5,WeatherDisplay:10.37,2013-08-21 15:35:00,
2013-08-21 17:36:00,73.5,45.6,30.04,NNW,340,6.9,6.9,37,1.03,FEW,,61.55,599.5,WeatherDisplay:10.37,2013-08-21 15:36:00,
2013-08-21 17:37:00,73.5,45.6,30.04,NNW,340,5.8,5.8,37,1.03,FEW,,61.55,599.5,WeatherDisplay:10.37,2013-08-21 15:37:00,
2013-08-21 17:39:00,73.5,45.6,30.04,NNW,340,2.0,2.0,37,1.03,FEW,,61.55,599.5,WeatherDisplay:10.37,2013-08-21 15:39:00,
2013-08-21 17:40:00,73.5,45.6,30.04,NNW,340,2.3,2.3,37,1.03,FEW,,61.55,599.5,WeatherDisplay:10.37,2013-08-21 15:40:00,
2013-08-21 17:41:00,73.9,46.0,30.04,WSW,257,2.3,2.3,37,1.03,FEW,,61.55,599.5,WeatherDisplay:10.37,2013-08-21 15:41:00,
2013-08-21 17:42:00,74.0,46.1,30.04,SW,234,2.3,2.3,37,1.03,FEW,,61.55,481.8,WeatherDisplay:10.37,2013-08-21 15:42:00,
2013-08-21 17:44:00,74.0,46.8,30.04,South,186,2.3,0.0,38,1.03,FEW,,61.55,481.8,WeatherDisplay:10.37,2013-08-21 15:44:00,
2013-08-21 17:45:00,74.0,46.8,30.04,SSW,209,1.0,1.0,38,1.03,FEW,,61.55,481.8,WeatherDisplay:10.37,2013-08-21 15:45:00,
2013-08-21 17:46:00,74.0,46.8,30.04,SSW,209,1.2,1.2,38,1.03,FEW,,61.55,481.8,WeatherDisplay:10.37,2013-08-21 15:46:00,
2013-08-21 17:47:00,74.0,46.8,30.04,SSW,209,1.2,1.2,38,1.03,FEW,,61.55,481.8,WeatherDisplay:10.37,2013-08-21 15:47:00,
2013-08-21 17:50:00,74.0,46.8,30.04,West,271,2.3,2.3,38,0.51,FEW,,61.55,458.7,WeatherDisplay:10.37,2013-08-21 15:50:00,
2013-08-21 17:51:00,74.0,46.8,30.04,WSW,240,3.0,3.0,38,0.51,FEW,,61.55,451.0,WeatherDisplay:10.37,2013-08-21 15:51:00,
2013-08-21 17:52:00,74.0,46.8,30.04,WSW,244,3.5,3.5,38,0.51,FEW,,61.55,446.6,WeatherDisplay:10.37,2013-08-21 15:52:00,
2013-08-21 17:53:00,74.0,46.8,30.04,WSW,237,1.2,1.2,38,0.87,RA,,61.91,443.3,WeatherDisplay:10.37,2013-08-21 15:53:00,
2013-08-21 17:56:00,74.0,47.5,30.04,WSW,244,0.0,0.0,39,1.18,RA,,62.22,443.3,WeatherDisplay:10.37,2013-08-21 15:56:00,
2013-08-21 17:57:00,74.0,46.8,30.03,NNW,342,5.8,5.8,38,0.67,RA,,62.22,443.3,WeatherDisplay:10.37,2013-08-21 15:57:00,
2013-08-21 17:58:00,74.2,47.6,30.04,NNW,342,5.8,5.8,39,1.47,RA,,63.22,443.3,WeatherDisplay:10.37,2013-08-21 15:58:00,
2013-08-21 18:00:00,74.2,47.6,30.03,South,176,3.5,3.5,39,1.67,RA,,63.22,443.3,WeatherDisplay:10.37,2013-08-21 16:00:00,
2013-08-21 18:01:00,74.2,47.6,30.03,South,176,3.5,3.5,39,1.67,RA,,63.22,443.3,WeatherDisplay:10.37,2013-08-21 16:01:00,
2013-08-21 18:03:00,74.2,47.0,30.03,ESE,102,3.5,3.5,38,2.66,RA,,64.21,415.8,WeatherDisplay:10.37,2013-08-21 16:03:00,
2013-08-21 18:04:00,74.2,47.0,30.03,ESE,107,2.3,2.3,38,2.86,RA,,64.41,410.3,WeatherDisplay:10.37,2013-08-21 16:04:00,
2013-08-21 18:06:00,74.2,47.0,30.04,SW,227,6.9,6.9,38,3.21,RA,,64.92,408.1,WeatherDisplay:10.37,2013-08-21 16:06:00,
2013-08-21 18:08:00,74.2,47.0,30.03,SSW,195,3.5,3.5,38,3.81,RA,,65.64,394.9,WeatherDisplay:10.37,2013-08-21 16:08:00,
2013-08-21 18:10:00,74.2,47.0,30.03,SSW,195,1.2,0.0,38,4.29,RA,,65.84,392.7,WeatherDisplay:10.37,2013-08-21 16:10:00,
2013-08-21 18:11:00,74.2,47.0,30.03,SSW,195,0.0,0.0,38,4.29,RA,,65.84,392.7,WeatherDisplay:10.37,2013-08-21 16:11:00,
2013-08-21 18:14:00,74.2,47.0,30.03,SSW,195,2.0,2.0,38,5.16,RA,,66.71,377.3,WeatherDisplay:10.37,2013-08-21 16:14:00,
2013-08-21 18:15:00,74.0,46.8,30.03,SSW,195,3.5,3.5,38,5.16,RA,,67.26,374.0,WeatherDisplay:10.37,2013-08-21 16:15:00,
2013-08-21 18:16:00,74.0,46.8,30.03,SSW,195,1.2,1.2,38,5.71,RA,,67.26,374.0,WeatherDisplay:10.37,2013-08-21 16:16:00,
2013-08-21 18:17:00,74.0,46.8,30.03,SSW,195,0.0,0.0,38,5.71,RA,,67.26,374.0,WeatherDisplay:10.37,2013-08-21 16:17:00,
2013-08-21 18:19:00,74.2,47.0,30.03,SSW,195,3.0,3.0,38,5.71,FEW,,67.26,361.9,WeatherDisplay:10.37,2013-08-21 16:19:00,
2013-08-21 18:21:00,74.2,47.0,30.03,SSW,196,3.5,3.5,38,5.71,FEW,,67.26,361.9,WeatherDisplay:10.37,2013-08-21 16:21:00,
2013-08-21 18:24:00,74.2,45.5,30.03,SSW,196,3.5,3.5,36,6.47,RA,,68.22,361.9,WeatherDisplay:10.37,2013-08-21 16:24:00,
2013-08-21 18:26:00,74.0,45.3,30.03,SSW,196,3.5,3.5,36,6.67,RA,,68.22,342.1,WeatherDisplay:10.37,2013-08-21 16:26:00,
2013-08-21 18:27:00,74.0,45.3,30.03,SSW,196,3.5,3.5,36,6.67,RA,,68.22,342.1,WeatherDisplay:10.37,2013-08-21 16:27:00,
2013-08-21 18:29:00,74.0,45.3,30.03,SSW,196,3.5,3.5,36,6.67,FEW,,68.22,342.1,WeatherDisplay:10.37,2013-08-21 16:29:00,
2013-08-21 18:31:00,74.0,45.3,30.03,SW,224,3.5,3.5,36,6.67,FEW,,68.22,342.1,WeatherDisplay:10.37,2013-08-21 16:31:00,
2013-08-21 18:32:00,74.0,45.3,30.03,WSW,239,4.0,4.0,36,6.67,FEW,,68.22,342.1,WeatherDisplay:10.37,2013-08-21 16:32:00,
2013-08-21 18:34:00,74.0,45.3,30.03,WSW,239,3.5,3.5,36,6.67,FEW,,68.22,342.1,WeatherDisplay:10.37,2013-08-21 16:34:00,
2013-08-21 18:35:00,74.0,45.3,30.03,WSW,239,2.3,2.3,36,6.67,FEW,,68.22,342.1,WeatherDisplay:10.37,2013-08-21 16:35:00,
2013-08-21 18:37:00,74.0,46.8,30.03,WSW,239,1.2,1.2,38,6.67,FEW,,68.22,342.1,WeatherDisplay:10.37,2013-08-21 16:37:00,
2013-08-21 18:38:00,74.0,46.8,30.03,WSW,239,2.0,2.0,38,6.67,FEW,,68.22,342.1,WeatherDisplay:10.37,2013-08-21 16:38:00,
2013-08-21 18:40:00,73.5,46.3,30.03,WSW,239,2.3,2.3,38,6.67,FEW,,68.22,342.1,WeatherDisplay:10.37,2013-08-21 16:40:00,
2013-08-21 18:42:00,73.5,46.3,30.03,SSW,209,2.3,2.3,38,6.67,FEW,,68.22,342.1,WeatherDisplay:10.37,2013-08-21 16:42:00,
2013-08-21 18:43:00,73.5,46.3,30.03,SSW,209,0.0,0.0,38,6.67,FEW,,68.22,342.1,WeatherDisplay:10.37,2013-08-21 16:43:00,
2013-08-21 18:45:00,73.5,45.6,30.03,South,191,3.5,3.5,37,7.27,RA,,69.14,277.2,WeatherDisplay:10.37,2013-08-21 16:45:00,
2013-08-21 18:46:00,73.5,45.6,30.03,South,191,4.6,4.6,37,7.59,RA,,69.14,277.2,WeatherDisplay:10.37,2013-08-21 16:46:00,
2013-08-21 18:47:00,73.2,45.4,30.03,South,191,1.2,1.2,37,7.59,RA,,69.53,269.5,WeatherDisplay:10.37,2013-08-21 16:47:00,
2013-08-21 18:48:00,73.2,45.4,30.03,South,191,3.0,3.0,37,7.98,RA,,69.77,267.3,WeatherDisplay:10.37,2013-08-21 16:48:00,
2013-08-21 18:50:00,73.2,43.9,30.03,SW,223,3.0,3.0,35,8.54,RA,,70.33,261.8,WeatherDisplay:10.37,2013-08-21 16:50:00,
2013-08-21 18:51:00,73.0,43.7,30.03,SW,223,3.5,3.5,35,8.78,RA,,70.33,261.8,WeatherDisplay:10.37,2013-08-21 16:51:00,
2013-08-21 18:52:00,72.8,43.5,30.03,SW,223,2.3,0.0,35,8.78,RA,,70.33,255.2,WeatherDisplay:10.37,2013-08-21 16:52:00,
2013-08-21 18:53:00,72.7,44.9,30.03,SW,223,0.0,0.0,37,8.42,RA,,70.96,255.2,WeatherDisplay:10.37,2013-08-21 16:53:00,
2013-08-21 18:56:00,72.7,44.9,30.02,SW,223,0.0,0.0,37,8.90,RA,,71.12,245.3,WeatherDisplay:10.37,2013-08-21 16:56:00,
2013-08-21 18:57:00,72.7,44.9,30.03,SW,223,0.0,0.0,37,8.90,RA,,71.12,245.3,WeatherDisplay:10.37,2013-08-21 16:57:00,
2013-08-21 18:58:00,72.7,44.9,30.03,SW,223,0.0,0.0,37,8.90,FEW,,71.12,237.6,WeatherDisplay:10.37,2013-08-21 16:58:00,
2013-08-21 18:59:00,72.7,44.9,30.03,SW,223,2.3,2.3,37,7.90,FEW,,71.12,237.6,WeatherDisplay:10.37,2013-08-21 16:59:00,
2013-08-21 19:01:00,72.7,44.9,29.98,West,263,2.3,2.3,37,7.90,FEW,,71.12,237.6,WeatherDisplay:10.37,2013-08-21 17:01:00,
2013-08-21 19:02:00,72.7,44.9,29.98,WSW,246,2.0,2.0,37,7.07,FEW,,71.12,237.6,WeatherDisplay:10.37,2013-08-21 17:02:00,
2013-08-21 19:03:00,72.3,45.3,29.98,WSW,246,2.3,2.3,38,6.91,FEW,,71.12,222.2,WeatherDisplay:10.37,2013-08-21 17:03:00,
2013-08-21 19:04:00,72.1,45.1,29.98,WSW,246,2.3,2.3,38,6.71,FEW,,71.12,221.1,WeatherDisplay:10.37,2013-08-21 17:04:00,
2013-08-21 19:07:00,72.1,45.1,29.98,WSW,246,1.2,1.2,38,6.00,FEW,,71.12,221.1,WeatherDisplay:10.37,2013-08-21 17:07:00,
2013-08-21 19:08:00,72.1,45.1,29.98,WSW,246,2.3,2.3,38,5.76,FEW,,71.12,221.1,WeatherDisplay:10.37,2013-08-21 17:08:00,
2013-08-21 19:10:00,72.1,45.8,29.98,WSW,241,2.3,2.3,39,5.48,FEW,,71.12,221.1,WeatherDisplay:10.37,2013-08-21 17:10:00,
2013-08-21 19:12:00,71.8,45.5,29.98,WSW,241,0.0,0.0,39,5.28,FEW,,71.12,196.9,WeatherDisplay:10.37,2013-08-21 17:12:00,
2013-08-21 19:13:00,71.8,46.2,29.98,WSW,241,0.0,0.0,40,4.61,FEW,,71.12,196.9,WeatherDisplay:10.37,2013-08-21 17:13:00,
2013-08-21 19:15:00,72.0,46.3,29.98,WSW,241,0.0,0.0,40,4.96,RA,,71.67,185.9,WeatherDisplay:10.37,2013-08-21 17:15:00,
2013-08-21 19:17:00,72.0,46.3,29.98,WSW,241,0.0,0.0,40,4.41,RA,,71.67,178.2,WeatherDisplay:10.37,2013-08-21 17:17:00,
2013-08-21 19:18:00,72.0,46.3,29.98,WSW,241,0.0,0.0,40,4.41,RA,,71.67,178.2,WeatherDisplay:10.37,2013-08-21 17:18:00,
2013-08-21 19:19:00,72.0,46.3,29.98,WSW,241,0.0,0.0,40,4.41,FEW,,71.67,178.2,WeatherDisplay:10.37,2013-08-21 17:19:00,
2013-08-21 19:20:00,72.1,45.1,29.98,WSW,241,0.0,0.0,38,4.41,FEW,,71.67,168.3,WeatherDisplay:10.37,2013-08-21 17:20:00,
2013-08-21 19:21:00,72.1,45.1,29.98,WSW,241,0.0,0.0,38,4.41,FEW,,71.67,162.8,WeatherDisplay:10.37,2013-08-21 17:21:00,
2013-08-21 19:22:00,72.1,45.8,29.98,WSW,241,0.0,0.0,39,4.57,RA,,71.83,162.8,WeatherDisplay:10.37,2013-08-21 17:22:00,
2013-08-21 19:23:00,72.3,45.9,29.98,WSW,241,0.0,0.0,39,4.57,RA,,72.15,157.3,WeatherDisplay:10.37,2013-08-21 17:23:00,
2013-08-21 19:24:00,72.3,45.9,29.98,WSW,241,0.0,0.0,39,4.29,RA,,72.31,155.1,WeatherDisplay:10.37,2013-08-21 17:24:00,
2013-08-21 19:25:00,72.3,45.3,29.98,WSW,241,0.0,0.0,38,4.24,RA,,72.46,155.1,WeatherDisplay:10.37,2013-08-21 17:25:00,
2013-08-21 19:26:00,72.5,45.4,29.98,WSW,241,0.0,0.0,38,4.24,RA,,72.46,155.1,WeatherDisplay:10.37,2013-08-21 17:26:00,
2013-08-21 19:27:00,72.5,45.4,29.98,WSW,241,0.0,0.0,38,4.24,RA,,73.14,145.2,WeatherDisplay:10.37,2013-08-21 17:27:00,
2013-08-21 19:29:00,72.5,45.4,29.98,SW,230,0.0,0.0,38,5.16,RA,,73.62,139.7,WeatherDisplay:10.37,2013-08-21 17:29:00,
2013-08-21 19:30:00,72.5,46.1,29.98,SW,230,0.0,0.0,39,5.40,RA,,73.85,137.5,WeatherDisplay:10.37,2013-08-21 17:30:00,
2013-08-21 19:31:00,72.5,46.1,29.98,SW,230,0.0,0.0,39,5.63,RA,,73.85,137.5,WeatherDisplay:10.37,2013-08-21 17:31:00,
2013-08-21 19:32:00,72.5,46.1,29.98,SW,230,0.0,0.0,39,5.99,RA,,74.21,132.0,WeatherDisplay:10.37,2013-08-21 17:32:00,
2013-08-21 19:34:00,72.7,46.3,29.98,SW,230,0.0,0.0,39,6.23,RA,,74.85,125.4,WeatherDisplay:10.37,2013-08-21 17:34:00,
2013-08-21 19:35:00,72.7,46.3,29.98,SW,230,0.0,0.0,39,6.63,RA,,75.04,125.4,WeatherDisplay:10.37,2013-08-21 17:35:00,
2013-08-21 19:36:00,72.7,46.3,29.98,SW,230,0.0,0.0,39,6.82,RA,,75.04,125.4,WeatherDisplay:10.37,2013-08-21 17:36:00,
2013-08-21 19:37:00,72.3,45.9,29.98,SW,230,0.0,0.0,39,6.82,RA,,75.04,125.4,WeatherDisplay:10.37,2013-08-21 17:37:00,
2013-08-21 19:38:00,72.3,45.9,29.98,SW,230,0.0,0.0,39,6.82,RA,,75.04,125.4,WeatherDisplay:10.37,2013-08-21 17:38:00,
2013-08-21 19:40:00,72.0,46.3,29.98,SW,230,0.0,0.0,40,6.82,FEW,,75.04,125.4,WeatherDisplay:10.37,2013-08-21 17:40:00,
2013-08-21 19:41:00,72.0,46.3,29.98,SW,230,0.0,0.0,40,6.82,FEW,,75.04,108.9,WeatherDisplay:10.37,2013-08-21 17:41:00,
2013-08-21 19:43:00,72.0,46.3,29.98,SW,230,0.0,0.0,40,6.82,FEW,,75.04,102.3,WeatherDisplay:10.37,2013-08-21 17:43:00,
2013-08-21 19:46:00,71.8,45.5,29.98,SW,230,0.0,0.0,39,5.90,FEW,,75.04,92.4,WeatherDisplay:10.37,2013-08-21 17:46:00,
2013-08-21 19:48:00,71.8,45.5,29.98,SW,230,0.0,0.0,39,5.90,FEW,,75.04,92.4,WeatherDisplay:10.37,2013-08-21 17:48:00,
2013-08-21 19:51:00,71.3,45.7,29.98,SW,230,0.0,0.0,40,5.39,RA,,76.31,83.6,WeatherDisplay:10.37,2013-08-21 17:51:00,
2013-08-21 19:52:00,71.3,45.7,29.99,SW,230,0.0,0.0,40,5.39,RA,,76.31,83.6,WeatherDisplay:10.37,2013-08-21 17:52:00,
2013-08-21 19:53:00,71.1,45.5,29.98,SW,230,0.0,0.0,40,5.98,RA,,76.31,83.6,WeatherDisplay:10.37,2013-08-21 17:53:00,
2013-08-21 19:54:00,70.9,45.4,29.98,SW,230,0.0,0.0,40,5.19,RA,,76.31,83.6,WeatherDisplay:10.37,2013-08-21 17:54:00,
2013-08-21 19:57:00,70.6,45.1,29.99,SW,230,0.0,0.0,40,5.91,RA,,77.03,61.6,WeatherDisplay:10.37,2013-08-21 17:57:00,
2013-08-21 19:58:00,70.4,44.9,29.99,SW,230,0.0,0.0,40,6.58,RA,,77.70,61.6,WeatherDisplay:10.37,2013-08-21 17:58:00,
2013-08-21 19:59:00,70.1,44.6,29.99,SW,230,0.0,0.0,40,6.58,RA,,77.70,61.6,WeatherDisplay:10.37,2013-08-21 17:59:00,
2013-08-21 20:02:00,69.6,45.5,30.02,SW,230,0.0,0.0,42,7.34,RA,,78.46,52.8,WeatherDisplay:10.37,2013-08-21 18:02:00,
2013-08-21 20:03:00,69.6,45.5,30.02,SW,230,0.0,0.0,42,7.34,RA,,78.46,52.8,WeatherDisplay:10.37,2013-08-21 18:03:00,
2013-08-21 20:04:00,69.1,45.0,30.03,SW,230,0.0,0.0,42,7.34,FEW,,78.46,52.8,WeatherDisplay:10.37,2013-08-21 18:04:00,
2013-08-21 20:08:00,68.8,45.4,30.03,SW,230,0.0,0.0,43,7.34,FEW,,78.46,52.8,WeatherDisplay:10.37,2013-08-21 18:08:00,
2013-08-21 20:09:00,68.6,45.8,30.03,SW,230,0.0,0.0,44,7.34,FEW,,78.46,36.3,WeatherDisplay:10.37,2013-08-21 18:09:00,
2013-08-21 20:13:00,68.6,45.8,30.03,SW,230,0.0,0.0,44,7.34,FEW,,78.46,35.2,WeatherDisplay:10.37,2013-08-21 18:13:00,
2013-08-21 20:14:00,68.6,45.8,30.03,SW,230,0.0,0.0,44,8.05,RA,,79.17,35.2,WeatherDisplay:10.37,2013-08-21 18:14:00,
2013-08-21 20:15:00,68.6,45.8,30.03,SW,230,0.0,0.0,44,8.05,RA,,79.17,35.2,WeatherDisplay:10.37,2013-08-21 18:15:00,
2013-08-21 20:18:00,68.4,45.6,30.03,SW,230,0.0,0.0,44,7.50,FEW,,79.17,35.2,WeatherDisplay:10.37,2013-08-21 18:18:00,
2013-08-21 20:19:00,68.4,45.6,30.03,SW,230,0.0,0.0,44,7.50,FEW,,79.17,35.2,WeatherDisplay:10.37,2013-08-21 18:19:00,
2013-08-21 20:20:00,68.4,45.6,30.03,SW,230,0.0,0.0,44,7.50,FEW,,79.17,35.2,WeatherDisplay:10.37,2013-08-21 18:20:00,
2013-08-21 20:21:00,68.3,45.5,30.03,SW,230,0.0,0.0,44,7.50,FEW,,79.17,35.2,WeatherDisplay:10.37,2013-08-21 18:21:00,
2013-08-21 20:23:00,68.3,47.3,30.03,SW,230,0.0,0.0,47,7.90,RA,,79.73,35.2,WeatherDisplay:10.37,2013-08-21 18:23:00,
2013-08-21 20:24:00,68.3,47.3,30.03,SW,230,0.0,0.0,47,7.89,RA,,80.20,35.2,WeatherDisplay:10.37,2013-08-21 18:24:00,
2013-08-21 20:25:00,68.3,47.3,30.03,SW,230,0.0,0.0,47,7.74,RA,,80.20,35.2,WeatherDisplay:10.37,2013-08-21 18:25:00,
2013-08-21 20:27:00,68.3,47.3,30.03,SW,230,0.0,0.0,47,7.74,FEW,,80.20,35.2,WeatherDisplay:10.37,2013-08-21 18:27:00,
2013-08-21 20:28:00,68.3,47.3,30.03,SW,230,0.0,0.0,47,7.06,FEW,,80.20,35.2,WeatherDisplay:10.37,2013-08-21 18:28:00,
2013-08-21 20:29:00,68.3,47.3,30.03,SW,230,0.0,0.0,47,6.82,FEW,,80.20,35.2,WeatherDisplay:10.37,2013-08-21 18:29:00,
2013-08-21 20:30:00,68.3,47.3,30.03,SW,230,0.0,0.0,47,6.58,FEW,,80.20,35.2,WeatherDisplay:10.37,2013-08-21 18:30:00,
2013-08-21 20:31:00,68.3,47.3,30.03,SW,230,0.0,0.0,47,6.35,FEW,,80.20,35.2,WeatherDisplay:10.37,2013-08-21 18:31:00,
2013-08-21 20:33:00,68.3,47.3,30.03,SW,230,0.0,0.0,47,5.99,FEW,,80.20,35.2,WeatherDisplay:10.37,2013-08-21 18:33:00,
2013-08-21 20:34:00,68.3,47.3,30.03,SW,230,0.0,0.0,47,5.75,FEW,,80.20,35.2,WeatherDisplay:10.37,2013-08-21 18:34:00,
2013-08-21 20:36:00,66.8,45.9,30.03,SW,230,0.0,0.0,47,5.35,FEW,,80.20,35.2,WeatherDisplay:10.37,2013-08-21 18:36:00,
2013-08-21 20:38:00,66.4,45.5,30.03,SW,230,0.0,0.0,47,5.16,FEW,,80.20,35.2,WeatherDisplay:10.37,2013-08-21 18:38:00,
2013-08-21 20:39:00,66.4,45.5,30.03,SW,230,0.0,0.0,47,5.16,FEW,,80.20,35.2,WeatherDisplay:10.37,2013-08-21 18:39:00,
2013-08-21 20:41:00,66.0,45.2,30.04,SW,230,0.0,0.0,47,5.16,FEW,,80.20,35.2,WeatherDisplay:10.37,2013-08-21 18:41:00,
2013-08-21 20:44:00,65.6,44.8,30.03,SW,230,0.0,0.0,47,5.16,FEW,,80.20,35.2,WeatherDisplay:10.37,2013-08-21 18:44:00,
2013-08-21 20:45:00,65.2,44.5,30.04,SW,230,0.0,0.0,47,5.16,FEW,,80.20,35.2,WeatherDisplay:10.37,2013-08-21 18:45:00,
2013-08-21 20:46:00,65.2,44.5,30.04,SW,230,0.0,0.0,47,5.16,FEW,,80.20,35.2,WeatherDisplay:10.37,2013-08-21 18:46:00,
2013-08-21 20:47:00,65.2,44.5,30.04,SW,230,0.0,0.0,47,5.16,FEW,,80.20,35.2,WeatherDisplay:10.37,2013-08-21 18:47:00,
2013-08-21 20:49:00,64.7,44.0,30.04,SW,230,0.0,0.0,47,5.16,FEW,,80.20,35.2,WeatherDisplay:10.37,2013-08-21 18:49:00,
2013-08-21 20:50:00,64.7,44.0,30.04,SW,230,0.0,0.0,47,4.48,FEW,,80.20,35.2,WeatherDisplay:10.37,2013-08-21 18:50:00,
2013-08-21 20:52:00,64.7,44.0,30.04,SW,230,0.0,0.0,47,4.48,FEW,,80.20,35.2,WeatherDisplay:10.37,2013-08-21 18:52:00,
2013-08-21 20:54:00,64.7,44.0,30.05,SW,230,0.0,0.0,47,3.89,FEW,,80.20,35.2,WeatherDisplay:10.37,2013-08-21 18:54:00,
2013-08-21 20:55:00,64.7,44.0,30.05,SW,230,0.0,0.0,47,3.17,FEW,,80.20,35.2,WeatherDisplay:10.37,2013-08-21 18:55:00,
2013-08-21 20:57:00,64.7,44.0,30.05,SW,230,0.0,0.0,47,3.17,FEW,,80.20,35.2,WeatherDisplay:10.37,2013-08-21 18:57:00,
2013-08-21 21:00:00,64.7,44.0,30.05,SW,230,0.0,0.0,47,2.50,FEW,,80.20,35.2,WeatherDisplay:10.37,2013-08-21 19:00:00,
2013-08-21 21:02:00,64.7,44.0,30.04,SW,230,0.0,0.0,47,1.74,FEW,,80.20,35.2,WeatherDisplay:10.37,2013-08-21 19:02:00,
2013-08-21 21:03:00,64.7,44.0,30.04,SW,230,0.0,0.0,47,1.74,CLR,,80.20,35.2,WeatherDisplay:10.37,2013-08-21 19:03:00,
2013-08-21 21:05:00,63.2,42.6,30.04,SW,230,1.2,1.2,47,1.74,CLR,,80.20,35.2,WeatherDisplay:10.37,2013-08-21 19:05:00,
2013-08-21 21:06:00,63.2,42.6,30.04,SW,230,1.2,1.2,47,1.74,CLR,,80.20,35.2,WeatherDisplay:10.37,2013-08-21 19:06:00,
2013-08-21 21:07:00,63.2,42.6,30.04,SW,230,1.2,1.2,47,1.74,CLR,,80.20,35.2,WeatherDisplay:10.37,2013-08-21 19:07:00,
2013-08-21 21:08:00,63.2,42.6,30.04,SW,230,1.2,1.2,47,1.74,CLR,,80.20,35.2,WeatherDisplay:10.37,2013-08-21 19:08:00,
2013-08-21 21:10:00,63.2,42.6,30.04,SW,230,1.2,0.0,47,1.74,CLR,,80.20,35.2,WeatherDisplay:10.37,2013-08-21 19:10:00,
2013-08-21 21:11:00,63.2,42.6,30.04,SW,230,0.0,0.0,47,1.74,CLR,,80.20,35.2,WeatherDisplay:10.37,2013-08-21 19:11:00,
2013-08-21 21:12:00,62.6,42.1,30.04,SW,230,0.0,0.0,47,1.74,CLR,,80.20,35.2,WeatherDisplay:10.37,2013-08-21 19:12:00,
2013-08-21 21:14:00,62.4,41.9,30.04,SW,230,0.0,0.0,47,1.03,CLR,,80.20,35.2,WeatherDisplay:10.37,2013-08-21 19:14:00,
2013-08-21 21:16:00,62.4,41.9,30.05,SW,230,0.0,0.0,47,1.03,CLR,,80.20,35.2,WeatherDisplay:10.37,2013-08-21 19:16:00,
2013-08-21 21:17:00,62.4,41.9,30.05,SW,230,0.0,0.0,47,1.03,CLR,,80.20,35.2,WeatherDisplay:10.37,2013-08-21 19:17:00,
2013-08-21 21:19:00,62.4,41.9,30.05,SW,230,0.0,0.0,47,1.03,CLR,,80.20,35.2,WeatherDisplay:10.37,2013-08-21 19:19:00,
2013-08-21 21:21:00,62.4,41.9,30.05,SW,230,0.0,0.0,47,1.03,CLR,,80.20,35.2,WeatherDisplay:10.37,2013-08-21 19:21:00,
2013-08-21 21:22:00,62.4,41.9,30.05,SW,230,0.0,0.0,47,0.47,CLR,,80.20,35.2,WeatherDisplay:10.37,2013-08-21 19:22:00,
2013-08-21 21:24:00,62.4,41.9,30.05,SW,230,0.0,0.0,47,0.00,CLR,,80.20,35.2,WeatherDisplay:10.37,2013-08-21 19:24:00,
2013-08-21 21:26:00,62.4,41.9,30.05,SW,230,0.0,0.0,47,0.00,CLR,,80.20,35.2,WeatherDisplay:10.37,2013-08-21 19:26:00,
2013-08-21 21:27:00,62.4,41.9,30.05,SW,230,0.0,0.0,47,0.00,CLR,,80.20,35.2,WeatherDisplay:10.37,2013-08-21 19:27:00,
2013-08-21 21:28:00,62.3,41.8,30.05,SW,230,0.0,0.0,47,0.00,CLR,,80.20,35.2,WeatherDisplay:10.37,2013-08-21 19:28:00,
2013-08-21 21:29:00,62.3,41.8,30.05,SW,230,0.0,0.0,47,0.00,CLR,,80.20,35.2,WeatherDisplay:10.37,2013-08-21 19:29:00,
2013-08-21 21:31:00,62.3,41.8,30.05,SW,230,0.0,0.0,47,0.00,CLR,,80.20,35.2,WeatherDisplay:10.37,2013-08-21 19:31:00,
2013-08-21 21:32:00,62.3,41.8,30.05,SW,230,0.0,0.0,47,0.00,CLR,,80.20,0.0,WeatherDisplay:10.37,2013-08-21 19:32:00,
2013-08-21 21:33:00,62.3,46.4,30.05,SW,230,0.0,0.0,56,0.00,CLR,,80.20,35.2,WeatherDisplay:10.37,2013-08-21 19:33:00,
2013-08-21 21:35:00,62.3,46.4,30.05,SW,230,0.0,0.0,56,0.00,CLR,,80.20,35.2,WeatherDisplay:10.37,2013-08-21 19:35:00,
2013-08-21 21:36:00,62.3,46.4,30.05,SW,230,0.0,0.0,56,0.00,CLR,,80.20,35.2,WeatherDisplay:10.37,2013-08-21 19:36:00,
2013-08-21 21:37:00,62.3,46.4,30.05,SW,230,0.0,0.0,56,0.00,CLR,,80.20,35.2,WeatherDisplay:10.37,2013-08-21 19:37:00,
2013-08-21 21:38:00,62.3,46.4,30.04,SW,230,0.0,0.0,56,0.00,CLR,,80.20,35.2,WeatherDisplay:10.37,2013-08-21 19:38:00,
2013-08-21 21:41:00,62.3,46.4,30.04,SW,230,0.0,0.0,56,0.00,CLR,,80.20,35.2,WeatherDisplay:10.37,2013-08-21 19:41:00,
2013-08-21 21:42:00,62.3,46.4,30.05,SW,230,0.0,0.0,56,0.00,CLR,,80.20,35.2,WeatherDisplay:10.37,2013-08-21 19:42:00,
2013-08-21 21:43:00,62.3,46.4,30.05,SW,230,0.0,0.0,56,0.00,CLR,,80.20,35.2,WeatherDisplay:10.37,2013-08-21 19:43:00,
2013-08-21 21:46:00,62.3,46.4,30.05,SW,230,0.0,0.0,56,0.00,CLR,,80.20,35.2,WeatherDisplay:10.37,2013-08-21 19:46:00,
2013-08-21 21:48:00,62.3,46.4,30.05,SW,230,0.0,0.0,56,0.00,CLR,,80.20,35.2,WeatherDisplay:10.37,2013-08-21 19:48:00,
2013-08-21 21:52:00,62.3,46.4,30.04,SW,230,0.0,0.0,56,0.00,CLR,,80.20,35.2,WeatherDisplay:10.37,2013-08-21 19:52:00,
2013-08-21 21:53:00,62.3,46.4,30.04,SW,230,0.0,0.0,56,0.00,CLR,,80.20,35.2,WeatherDisplay:10.37,2013-08-21 19:53:00,
2013-08-21 21:57:00,62.3,46.4,30.04,SW,230,0.0,0.0,56,0.00,CLR,,80.20,35.2,WeatherDisplay:10.37,2013-08-21 19:57:00,
2013-08-21 21:58:00,62.3,46.4,30.04,SW,230,0.0,0.0,56,0.00,CLR,,80.20,35.2,WeatherDisplay:10.37,2013-08-21 19:58:00,
2013-08-21 21:59:00,62.3,46.4,30.04,SW,230,0.0,0.0,56,0.00,CLR,,80.20,35.2,WeatherDisplay:10.37,2013-08-21 19:59:00,
2013-08-21 22:03:00,62.0,46.1,30.03,SW,230,0.0,0.0,56,0.00,CLR,,80.20,35.2,WeatherDisplay:10.37,2013-08-21 20:03:00,
2013-08-21 22:04:00,62.0,46.1,30.03,SW,230,0.0,0.0,56,0.00,CLR,,80.20,35.2,WeatherDisplay:10.37,2013-08-21 20:04:00,
2013-08-21 22:08:00,62.0,46.1,30.04,SW,230,0.0,0.0,56,0.00,CLR,,80.20,35.2,WeatherDisplay:10.37,2013-08-21 20:08:00,
2013-08-21 22:09:00,62.0,46.1,30.03,SW,230,0.0,0.0,56,0.00,CLR,,80.20,35.2,WeatherDisplay:10.37,2013-08-21 20:09:00,
2013-08-21 22:10:00,62.0,46.1,30.03,SW,230,0.0,0.0,56,0.00,CLR,,80.20,35.2,WeatherDisplay:10.37,2013-08-21 20:10:00,
2013-08-21 22:13:00,62.0,46.1,30.03,SW,230,0.0,0.0,56,0.00,CLR,,80.20,35.2,WeatherDisplay:10.37,2013-08-21 20:13:00,
2013-08-21 22:14:00,62.0,46.1,30.03,SW,232,0.0,0.0,56,0.00,CLR,,80.20,35.2,WeatherDisplay:10.37,2013-08-21 20:14:00,
2013-08-21 22:15:00,62.0,46.1,30.03,SW,232,0.0,0.0,56,0.00,CLR,,80.20,35.2,WeatherDisplay:10.37,2013-08-21 20:15:00,
2013-08-21 22:18:00,61.6,45.7,30.03,SW,232,0.0,0.0,56,0.00,CLR,,80.20,35.2,WeatherDisplay:10.37,2013-08-21 20:18:00,
2013-08-21 22:19:00,61.6,45.7,30.03,SW,232,0.0,0.0,56,0.00,CLR,,80.20,35.2,WeatherDisplay:10.37,2013-08-21 20:19:00,
2013-08-21 22:20:00,61.6,45.7,30.03,SW,232,0.0,0.0,56,0.00,CLR,,80.20,35.2,WeatherDisplay:10.37,2013-08-21 20:20:00,
2013-08-21 22:23:00,61.6,45.7,30.03,SW,232,0.0,0.0,56,0.00,CLR,,80.64,35.2,WeatherDisplay:10.37,2013-08-21 20:23:00,
2013-08-21 22:24:00,61.6,45.7,30.03,SW,232,0.0,0.0,56,0.00,CLR,,80.64,35.2,WeatherDisplay:10.37,2013-08-21 20:24:00,
2013-08-21 22:25:00,61.6,45.7,30.03,SW,232,0.0,0.0,56,0.44,RA,,80.64,35.2,WeatherDisplay:10.37,2013-08-21 20:25:00,
2013-08-21 22:28:00,61.6,45.7,30.03,SW,232,0.0,0.0,56,0.44,,,80.64,35.2,WeatherDisplay:10.37,2013-08-21 20:28:00,
2013-08-21 22:29:00,61.6,45.7,30.03,SW,232,0.0,0.0,56,0.44,,,80.64,35.2,WeatherDisplay:10.37,2013-08-21 20:29:00,
2013-08-21 22:31:00,61.6,45.7,30.03,SW,232,0.0,0.0,56,0.44,CLR,,80.64,35.2,WeatherDisplay:10.37,2013-08-21 20:31:00,
2013-08-21 22:34:00,61.6,48.9,30.03,SW,232,0.0,0.0,63,1.63,RA,,81.83,0.0,WeatherDisplay:10.37,2013-08-21 20:34:00,
2013-08-21 22:35:00,61.6,48.9,30.03,SW,232,0.0,0.0,63,1.87,RA,,82.07,0.0,WeatherDisplay:10.37,2013-08-21 20:35:00,
2013-08-21 22:36:00,61.5,48.8,30.03,SW,232,0.0,0.0,63,1.87,RA,,82.07,0.0,WeatherDisplay:10.37,2013-08-21 20:36:00,
2013-08-21 22:39:00,61.5,48.8,30.03,SW,232,0.0,0.0,63,2.82,RA,,83.02,0.0,WeatherDisplay:10.37,2013-08-21 20:39:00,
2013-08-21 22:40:00,61.5,49.2,30.03,SW,232,0.0,0.0,64,3.02,RA,,83.42,0.0,WeatherDisplay:10.37,2013-08-21 20:40:00,
2013-08-21 22:41:00,61.5,49.2,30.02,SW,232,0.0,0.0,64,3.22,RA,,83.42,0.0,WeatherDisplay:10.37,2013-08-21 20:41:00,
2013-08-21 22:42:00,61.5,49.2,30.02,SW,232,0.0,0.0,64,3.61,RA,,83.81,0.0,WeatherDisplay:10.37,2013-08-21 20:42:00,
2013-08-21 22:44:00,61.3,49.0,30.03,SW,232,0.0,0.0,64,4.01,RA,,84.21,0.0,WeatherDisplay:10.37,2013-08-21 20:44:00,
2013-08-21 22:46:00,61.3,49.0,30.03,SW,232,0.0,0.0,64,4.25,RA,,84.69,0.0,WeatherDisplay:10.37,2013-08-21 20:46:00,
2013-08-21 22:47:00,61.3,48.6,30.03,SW,232,2.3,2.3,63,4.49,RA,,84.69,0.0,WeatherDisplay:10.37,2013-08-21 20:47:00,
2013-08-21 22:49:00,61.3,49.0,30.03,SW,232,0.0,0.1,64,4.92,RA,,85.56,0.0,WeatherDisplay:10.37,2013-08-21 20:49:00,
2013-08-21 22:51:00,61.3,49.0,30.03,SW,232,0.0,0.0,64,5.68,RA,,85.88,0.0,WeatherDisplay:10.37,2013-08-21 20:51:00,
2013-08-21 22:52:00,61.3,48.6,30.03,SW,232,0.0,0.0,63,5.68,RA,,85.88,0.0,WeatherDisplay:10.37,2013-08-21 20:52:00,
2013-08-21 22:55:00,61.3,49.0,30.03,SW,232,0.0,0.0,64,6.07,RA,,86.75,0.0,WeatherDisplay:10.37,2013-08-21 20:55:00,
2013-08-21 22:56:00,61.3,49.0,30.03,SW,232,0.0,0.0,64,6.87,RA,,87.07,0.0,WeatherDisplay:10.37,2013-08-21 20:56:00,
2013-08-21 22:57:00,61.3,49.0,30.03,SW,232,0.0,0.0,64,7.11,RA,,87.31,0.0,WeatherDisplay:10.37,2013-08-21 20:57:00,
2013-08-21 23:00:00,61.2,48.9,30.03,SW,232,1.2,0.0,64,7.78,RA,,88.18,0.0,WeatherDisplay:10.37,2013-08-21 21:00:00,
2013-08-21 23:01:00,61.2,48.9,30.02,SW,232,0.0,0.0,64,8.14,RA,,88.34,0.0,WeatherDisplay:10.37,2013-08-21 21:01:00,
2013-08-21 23:02:00,61.2,48.9,30.02,SW,232,0.0,0.0,64,8.14,RA,,88.34,0.0,WeatherDisplay:10.37,2013-08-21 21:02:00,
2013-08-21 23:03:00,61.2,48.9,30.02,SW,232,0.0,0.0,64,8.14,RA,,88.34,0.0,WeatherDisplay:10.37,2013-08-21 21:03:00,
2013-08-21 23:06:00,61.0,48.7,30.02,SW,232,0.0,0.0,64,9.17,RA,,89.37,0.0,WeatherDisplay:10.37,2013-08-21 21:06:00,
2013-08-21 23:07:00,61.0,48.7,30.02,SW,232,0.0,0.0,64,9.17,RA,,89.37,0.0,WeatherDisplay:10.37,2013-08-21 21:07:00,
2013-08-21 23:09:00,61.0,48.7,30.02,SW,232,0.0,0.0,64,9.17,,,89.37,0.0,WeatherDisplay:10.37,2013-08-21 21:09:00,
2013-08-21 23:11:00,60.9,48.6,30.02,SW,232,0.0,0.0,64,9.17,CLR,,89.73,0.0,WeatherDisplay:10.37,2013-08-21 21:11:00,
2013-08-21 23:12:00,60.9,48.6,30.02,SW,232,0.0,0.0,64,9.53,RA,,89.73,0.0,WeatherDisplay:10.37,2013-08-21 21:12:00,
2013-08-21 23:13:00,60.9,48.6,30.02,SW,232,0.0,0.0,64,9.53,RA,,89.73,0.0,WeatherDisplay:10.37,2013-08-21 21:13:00,
2013-08-21 23:14:00,60.9,48.6,30.02,SW,232,0.0,0.0,64,9.53,RA,,89.73,0.0,WeatherDisplay:10.37,2013-08-21 21:14:00,
2013-08-21 23:16:00,60.9,48.6,30.02,SW,223,0.0,0.0,64,9.53,,,89.73,0.0,WeatherDisplay:10.37,2013-08-21 21:16:00,
2013-08-21 23:17:00,60.9,48.6,30.02,SW,232,0.0,0.0,64,9.53,CLR,,89.73,0.0,WeatherDisplay:10.37,2013-08-21 21:17:00,
2013-08-21 23:18:00,60.9,48.6,30.02,SW,232,0.0,0.0,64,9.53,CLR,,89.73,0.0,WeatherDisplay:10.37,2013-08-21 21:18:00,
2013-08-21 23:19:00,60.9,48.6,30.02,South,189,1.0,1.0,64,9.53,CLR,,89.73,0.0,WeatherDisplay:10.37,2013-08-21 21:19:00,
2013-08-21 23:21:00,60.9,48.6,30.02,South,191,0.0,0.0,64,9.53,CLR,,89.73,0.0,WeatherDisplay:10.37,2013-08-21 21:21:00,
2013-08-21 23:23:00,60.7,48.4,30.02,South,191,0.0,0.0,64,9.53,CLR,,89.73,0.0,WeatherDisplay:10.37,2013-08-21 21:23:00,
2013-08-21 23:24:00,60.7,48.4,30.02,South,191,0.0,0.0,64,9.09,CLR,,89.73,0.0,WeatherDisplay:10.37,2013-08-21 21:24:00,
2013-08-21 23:27:00,60.7,48.4,30.02,WNW,284,0.0,0.0,64,9.09,CLR,,89.81,0.0,WeatherDisplay:10.37,2013-08-21 21:27:00,
2013-08-21 23:28:00,60.7,48.4,30.02,WNW,284,0.0,0.0,64,9.17,RA,,89.81,0.0,WeatherDisplay:10.37,2013-08-21 21:28:00,
2013-08-21 23:29:00,60.9,48.6,30.02,WNW,284,0.0,0.0,64,9.17,RA,,89.81,0.0,WeatherDisplay:10.37,2013-08-21 21:29:00,
2013-08-21 23:32:00,60.9,48.6,30.02,West,263,3.5,3.5,64,9.21,RA,,90.48,0.0,WeatherDisplay:10.37,2013-08-21 21:32:00,
2013-08-21 23:33:00,60.9,48.6,30.02,West,271,3.5,3.5,64,8.81,RA,,90.48,0.0,WeatherDisplay:10.37,2013-08-21 21:33:00,
2013-08-21 23:34:00,60.9,48.6,30.02,West,271,3.5,3.5,64,8.65,,,90.48,0.0,WeatherDisplay:10.37,2013-08-21 21:34:00,
2013-08-21 23:38:00,60.9,48.6,30.02,NNW,333,0.0,0.0,64,7.86,CLR,,90.48,0.0,WeatherDisplay:10.37,2013-08-21 21:38:00,
2013-08-21 23:39:00,60.9,48.6,30.02,NNW,333,1.0,1.0,64,7.46,CLR,,90.48,0.0,WeatherDisplay:10.37,2013-08-21 21:39:00,
2013-08-21 23:40:00,60.9,48.6,30.02,NNW,333,1.2,1.2,64,7.26,CLR,,90.48,0.0,WeatherDisplay:10.37,2013-08-21 21:40:00,
2013-08-21 23:43:00,60.9,48.6,30.02,NNW,333,0.0,0.0,64,6.94,RA,,90.99,0.0,WeatherDisplay:10.37,2013-08-21 21:43:00,
2013-08-21 23:44:00,60.9,48.6,30.02,NNW,333,0.0,0.0,64,6.78,RA,,90.99,0.0,WeatherDisplay:10.37,2013-08-21 21:44:00,
2013-08-21 23:45:00,60.9,48.6,30.02,WNW,292,0.0,0.0,64,7.30,RA,,91.75,0.0,WeatherDisplay:10.37,2013-08-21 21:45:00,
2013-08-21 23:48:00,60.9,48.6,30.02,WNW,294,0.0,0.0,64,6.90,RA,,92.02,0.0,WeatherDisplay:10.37,2013-08-21 21:48:00,
2013-08-21 23:49:00,61.0,48.7,30.02,WNW,294,0.0,0.0,64,7.50,RA,,92.62,0.0,WeatherDisplay:10.37,2013-08-21 21:49:00,
2013-08-21 23:50:00,61.0,48.7,30.02,WNW,289,0.0,0.0,64,7.50,RA,,92.62,0.0,WeatherDisplay:10.37,2013-08-21 21:50:00,
2013-08-21 23:51:00,61.0,48.7,30.02,WNW,294,0.0,0.0,64,7.14,RA,,93.02,0.0,WeatherDisplay:10.37,2013-08-21 21:51:00,
2013-08-21 23:53:00,61.0,48.7,30.02,WNW,294,0.0,0.0,64,7.30,RA,,93.57,0.0,WeatherDisplay:10.37,2013-08-21 21:53:00,
2013-08-21 23:55:00,61.0,49.1,30.02,WSW,246,3.0,3.0,65,7.22,RA,,93.97,0.0,WeatherDisplay:10.37,2013-08-21 21:55:00,
2013-08-21 23:56:00,61.0,49.1,30.02,WSW,246,3.5,0.0,65,6.90,RA,,93.97,0.0,WeatherDisplay:10.37,2013-08-21 21:56:00,
2013-08-21 23:58:00,61.0,49.1,30.02,SW,224,1.0,1.0,65,7.17,RA,,94.68,0.0,WeatherDisplay:10.37,2013-08-21 21:58:00,